<?xml version="1.0" encoding="UTF-8" standalone="no" ?>
<gpx xmlns="http://www.topografix.com/GPX/1/1" xmlns:xsi="http://www.w3.org/2001/XMLSchema-instance" xsi:schemaLocation="http://www.topografix.com/GPX/1/1 http://www.topografix.com/GPX/1/1/gpx.xsd" version="1.1" creator="VisuGPX - https://www.visugpx.com">
  <metadata>
    <name>Labatie d'Andaure DEB N4 040321 IBP 99 22km 1040d+</name>
  </metadata>
  <trk>
    <name><![CDATA[2021-03-04 08:49:25]]></name>
    <extensions>
      <line xmlns="http://www.topografix.com/GPX/gpx_style/0/2">
        <color>0000FF</color>
        <opacity>0.59</opacity>
        <width>6</width>
      </line>
    </extensions>
    <trkseg>
      <trkpt lat="45.02769" lon="4.49502">
        <ele>493.58</ele>
        <time>2021-03-04T07:49:26.999Z</time>
      </trkpt>
      <trkpt lat="45.02781" lon="4.4954">
        <ele>494.75</ele>
        <time>2021-03-04T07:49:56.453Z</time>
      </trkpt>
      <trkpt lat="45.02789" lon="4.4957">
        <ele>495.28</ele>
        <time>2021-03-04T07:50:15.409Z</time>
      </trkpt>
      <trkpt lat="45.028" lon="4.4959">
        <ele>497.24</ele>
        <time>2021-03-04T07:50:34.114Z</time>
      </trkpt>
      <trkpt lat="45.02801" lon="4.49633">
        <ele>502.39</ele>
        <time>2021-03-04T07:51:02.999Z</time>
      </trkpt>
      <trkpt lat="45.02791" lon="4.49664">
        <ele>507.43</ele>
        <time>2021-03-04T07:51:23.293Z</time>
      </trkpt>
      <trkpt lat="45.02786" lon="4.49708">
        <ele>513.02</ele>
        <time>2021-03-04T07:51:52.999Z</time>
      </trkpt>
      <trkpt lat="45.02776" lon="4.49734">
        <ele>515.91</ele>
        <time>2021-03-04T07:52:11.999Z</time>
      </trkpt>
      <trkpt lat="45.02766" lon="4.49759">
        <ele>517.7</ele>
        <time>2021-03-04T07:52:30.907Z</time>
      </trkpt>
      <trkpt lat="45.02742" lon="4.49794">
        <ele>521.06</ele>
        <time>2021-03-04T07:53:00.017Z</time>
      </trkpt>
      <trkpt lat="45.02737" lon="4.49808">
        <ele>521.98</ele>
        <time>2021-03-04T07:53:20.999Z</time>
      </trkpt>
      <trkpt lat="45.02739" lon="4.49842">
        <ele>523.05</ele>
        <time>2021-03-04T07:53:39.996Z</time>
      </trkpt>
      <trkpt lat="45.02749" lon="4.49884">
        <ele>526.2</ele>
        <time>2021-03-04T07:54:10.269Z</time>
      </trkpt>
      <trkpt lat="45.02756" lon="4.49913">
        <ele>528.82</ele>
        <time>2021-03-04T07:54:30.999Z</time>
      </trkpt>
      <trkpt lat="45.02765" lon="4.49961">
        <ele>532.67</ele>
        <time>2021-03-04T07:54:58.999Z</time>
      </trkpt>
      <trkpt lat="45.02774" lon="4.49985">
        <ele>535.4</ele>
        <time>2021-03-04T07:55:17.999Z</time>
      </trkpt>
      <trkpt lat="45.02784" lon="4.50018">
        <ele>538.67</ele>
        <time>2021-03-04T07:55:36.832Z</time>
      </trkpt>
      <trkpt lat="45.02796" lon="4.50056">
        <ele>542.98</ele>
        <time>2021-03-04T07:56:06.999Z</time>
      </trkpt>
      <trkpt lat="45.02805" lon="4.50084">
        <ele>547.01</ele>
        <time>2021-03-04T07:56:27.999Z</time>
      </trkpt>
      <trkpt lat="45.02807" lon="4.50125">
        <ele>551.59</ele>
        <time>2021-03-04T07:56:56.253Z</time>
      </trkpt>
      <trkpt lat="45.02807" lon="4.50153">
        <ele>554.5</ele>
        <time>2021-03-04T07:57:16.999Z</time>
      </trkpt>
      <trkpt lat="45.02815" lon="4.5017">
        <ele>556.89</ele>
        <time>2021-03-04T07:57:35.999Z</time>
      </trkpt>
      <trkpt lat="45.02823" lon="4.50131">
        <ele>560.92</ele>
        <time>2021-03-04T07:58:05.999Z</time>
      </trkpt>
      <trkpt lat="45.02826" lon="4.50155">
        <ele>564.68</ele>
        <time>2021-03-04T07:58:24.436Z</time>
      </trkpt>
      <trkpt lat="45.02831" lon="4.50182">
        <ele>567.76</ele>
        <time>2021-03-04T07:58:44.999Z</time>
      </trkpt>
      <trkpt lat="45.02853" lon="4.50219">
        <ele>572.37</ele>
        <time>2021-03-04T07:59:15.289Z</time>
      </trkpt>
      <trkpt lat="45.02858" lon="4.5021">
        <ele>575.67</ele>
        <time>2021-03-04T07:59:37.000Z</time>
      </trkpt>
      <trkpt lat="45.02859" lon="4.50159">
        <ele>579.22</ele>
        <time>2021-03-04T08:00:05.552Z</time>
      </trkpt>
      <trkpt lat="45.0286" lon="4.50128">
        <ele>579.91</ele>
        <time>2021-03-04T08:00:25.000Z</time>
      </trkpt>
      <trkpt lat="45.02864" lon="4.50097">
        <ele>580.25</ele>
        <time>2021-03-04T08:00:45.000Z</time>
      </trkpt>
      <trkpt lat="45.02874" lon="4.5007">
        <ele>584.5</ele>
        <time>2021-03-04T08:01:16.000Z</time>
      </trkpt>
      <trkpt lat="45.02883" lon="4.50102">
        <ele>587.75</ele>
        <time>2021-03-04T08:01:35.000Z</time>
      </trkpt>
      <trkpt lat="45.02897" lon="4.50145">
        <ele>593.65</ele>
        <time>2021-03-04T08:02:06.000Z</time>
      </trkpt>
      <trkpt lat="45.02903" lon="4.50174">
        <ele>596.2</ele>
        <time>2021-03-04T08:02:25.195Z</time>
      </trkpt>
      <trkpt lat="45.02908" lon="4.50183">
        <ele>597.56</ele>
        <time>2021-03-04T08:02:46.000Z</time>
      </trkpt>
      <trkpt lat="45.02908" lon="4.50184">
        <ele>598.13</ele>
        <time>2021-03-04T08:04:00.000Z</time>
      </trkpt>
      <trkpt lat="45.0291" lon="4.50189">
        <ele>598.2</ele>
        <time>2021-03-04T08:04:29.000Z</time>
      </trkpt>
      <trkpt lat="45.02914" lon="4.50166">
        <ele>601.82</ele>
        <time>2021-03-04T08:04:59.000Z</time>
      </trkpt>
      <trkpt lat="45.02917" lon="4.50131">
        <ele>604.06</ele>
        <time>2021-03-04T08:05:17.496Z</time>
      </trkpt>
      <trkpt lat="45.02929" lon="4.50103">
        <ele>606.53</ele>
        <time>2021-03-04T08:05:36.274Z</time>
      </trkpt>
      <trkpt lat="45.02933" lon="4.50061">
        <ele>609.77</ele>
        <time>2021-03-04T08:06:04.628Z</time>
      </trkpt>
      <trkpt lat="45.02941" lon="4.50031">
        <ele>611.97</ele>
        <time>2021-03-04T08:06:23.190Z</time>
      </trkpt>
      <trkpt lat="45.02952" lon="4.50002">
        <ele>615</ele>
        <time>2021-03-04T08:06:42.122Z</time>
      </trkpt>
      <trkpt lat="45.02976" lon="4.49965">
        <ele>619.03</ele>
        <time>2021-03-04T08:07:11.613Z</time>
      </trkpt>
      <trkpt lat="45.02987" lon="4.49944">
        <ele>620.94</ele>
        <time>2021-03-04T08:07:32.000Z</time>
      </trkpt>
      <trkpt lat="45.03007" lon="4.49915">
        <ele>625.54</ele>
        <time>2021-03-04T08:08:01.189Z</time>
      </trkpt>
      <trkpt lat="45.03026" lon="4.49916">
        <ele>627.49</ele>
        <time>2021-03-04T08:08:20.000Z</time>
      </trkpt>
      <trkpt lat="45.03017" lon="4.49941">
        <ele>631.55</ele>
        <time>2021-03-04T08:08:39.676Z</time>
      </trkpt>
      <trkpt lat="45.03011" lon="4.49978">
        <ele>635.58</ele>
        <time>2021-03-04T08:09:09.000Z</time>
      </trkpt>
      <trkpt lat="45.03007" lon="4.50012">
        <ele>637.67</ele>
        <time>2021-03-04T08:09:27.272Z</time>
      </trkpt>
      <trkpt lat="45.03003" lon="4.50054">
        <ele>641.9</ele>
        <time>2021-03-04T08:09:56.000Z</time>
      </trkpt>
      <trkpt lat="45.03004" lon="4.50084">
        <ele>645.41</ele>
        <time>2021-03-04T08:10:16.000Z</time>
      </trkpt>
      <trkpt lat="45.03008" lon="4.50114">
        <ele>649.21</ele>
        <time>2021-03-04T08:10:36.146Z</time>
      </trkpt>
      <trkpt lat="45.03027" lon="4.50157">
        <ele>653.61</ele>
        <time>2021-03-04T08:11:05.999Z</time>
      </trkpt>
      <trkpt lat="45.03042" lon="4.50178">
        <ele>656.52</ele>
        <time>2021-03-04T08:11:25.145Z</time>
      </trkpt>
      <trkpt lat="45.03056" lon="4.50184">
        <ele>659.31</ele>
        <time>2021-03-04T08:11:45.614Z</time>
      </trkpt>
      <trkpt lat="45.03069" lon="4.50192">
        <ele>664.9</ele>
        <time>2021-03-04T08:12:14.999Z</time>
      </trkpt>
      <trkpt lat="45.03083" lon="4.50212">
        <ele>668.34</ele>
        <time>2021-03-04T08:12:34.999Z</time>
      </trkpt>
      <trkpt lat="45.03114" lon="4.50266">
        <ele>672.87</ele>
        <time>2021-03-04T08:13:05.999Z</time>
      </trkpt>
      <trkpt lat="45.03119" lon="4.50287">
        <ele>675.63</ele>
        <time>2021-03-04T08:13:25.999Z</time>
      </trkpt>
      <trkpt lat="45.03127" lon="4.50324">
        <ele>679.71</ele>
        <time>2021-03-04T08:13:45.999Z</time>
      </trkpt>
      <trkpt lat="45.03129" lon="4.50361">
        <ele>686.32</ele>
        <time>2021-03-04T08:14:15.589Z</time>
      </trkpt>
      <trkpt lat="45.03133" lon="4.50374">
        <ele>690.23</ele>
        <time>2021-03-04T08:14:34.999Z</time>
      </trkpt>
      <trkpt lat="45.03151" lon="4.50337">
        <ele>695.85</ele>
        <time>2021-03-04T08:15:04.489Z</time>
      </trkpt>
      <trkpt lat="45.03167" lon="4.50307">
        <ele>698.54</ele>
        <time>2021-03-04T08:15:24.370Z</time>
      </trkpt>
      <trkpt lat="45.03181" lon="4.50292">
        <ele>701.93</ele>
        <time>2021-03-04T08:15:43.999Z</time>
      </trkpt>
      <trkpt lat="45.03179" lon="4.50242">
        <ele>703.82</ele>
        <time>2021-03-04T08:16:12.253Z</time>
      </trkpt>
      <trkpt lat="45.0318" lon="4.50217">
        <ele>704.4</ele>
        <time>2021-03-04T08:16:30.994Z</time>
      </trkpt>
      <trkpt lat="45.0319" lon="4.50188">
        <ele>708.19</ele>
        <time>2021-03-04T08:16:59.610Z</time>
      </trkpt>
      <trkpt lat="45.03199" lon="4.50218">
        <ele>712.03</ele>
        <time>2021-03-04T08:17:19.999Z</time>
      </trkpt>
      <trkpt lat="45.03208" lon="4.50237">
        <ele>716.12</ele>
        <time>2021-03-04T08:17:38.999Z</time>
      </trkpt>
      <trkpt lat="45.03223" lon="4.50271">
        <ele>721.29</ele>
        <time>2021-03-04T08:18:07.999Z</time>
      </trkpt>
      <trkpt lat="45.03241" lon="4.50287">
        <ele>723.23</ele>
        <time>2021-03-04T08:18:26.656Z</time>
      </trkpt>
      <trkpt lat="45.03249" lon="4.50308">
        <ele>724.47</ele>
        <time>2021-03-04T08:18:45.999Z</time>
      </trkpt>
      <trkpt lat="45.03249" lon="4.50348">
        <ele>730.56</ele>
        <time>2021-03-04T08:19:14.889Z</time>
      </trkpt>
      <trkpt lat="45.03246" lon="4.5037">
        <ele>734.1</ele>
        <time>2021-03-04T08:19:34.999Z</time>
      </trkpt>
      <trkpt lat="45.03252" lon="4.50413">
        <ele>740.83</ele>
        <time>2021-03-04T08:20:03.273Z</time>
      </trkpt>
      <trkpt lat="45.03258" lon="4.50432">
        <ele>745.14</ele>
        <time>2021-03-04T08:20:23.999Z</time>
      </trkpt>
      <trkpt lat="45.03259" lon="4.50458">
        <ele>749.94</ele>
        <time>2021-03-04T08:20:43.186Z</time>
      </trkpt>
      <trkpt lat="45.03264" lon="4.50494">
        <ele>756.64</ele>
        <time>2021-03-04T08:21:12.999Z</time>
      </trkpt>
      <trkpt lat="45.03265" lon="4.50497">
        <ele>757.15</ele>
        <time>2021-03-04T08:21:32.999Z</time>
      </trkpt>
      <trkpt lat="45.03262" lon="4.505">
        <ele>758.27</ele>
        <time>2021-03-04T08:22:21.000Z</time>
      </trkpt>
      <trkpt lat="45.03261" lon="4.50495">
        <ele>758.33</ele>
        <time>2021-03-04T08:22:49.000Z</time>
      </trkpt>
      <trkpt lat="45.03262" lon="4.505">
        <ele>758.74</ele>
        <time>2021-03-04T08:23:16.000Z</time>
      </trkpt>
      <trkpt lat="45.03265" lon="4.50508">
        <ele>760.39</ele>
        <time>2021-03-04T08:24:17.000Z</time>
      </trkpt>
      <trkpt lat="45.03267" lon="4.50542">
        <ele>764.32</ele>
        <time>2021-03-04T08:24:38.000Z</time>
      </trkpt>
      <trkpt lat="45.03272" lon="4.50568">
        <ele>768.37</ele>
        <time>2021-03-04T08:24:57.000Z</time>
      </trkpt>
      <trkpt lat="45.03278" lon="4.50594">
        <ele>775.89</ele>
        <time>2021-03-04T08:25:27.000Z</time>
      </trkpt>
      <trkpt lat="45.03279" lon="4.5062">
        <ele>781.37</ele>
        <time>2021-03-04T08:25:47.000Z</time>
      </trkpt>
      <trkpt lat="45.03286" lon="4.50649">
        <ele>788.72</ele>
        <time>2021-03-04T08:26:17.000Z</time>
      </trkpt>
      <trkpt lat="45.0329" lon="4.50675">
        <ele>793.42</ele>
        <time>2021-03-04T08:26:37.000Z</time>
      </trkpt>
      <trkpt lat="45.0329" lon="4.50701">
        <ele>797.13</ele>
        <time>2021-03-04T08:26:57.000Z</time>
      </trkpt>
      <trkpt lat="45.03291" lon="4.5074">
        <ele>802.28</ele>
        <time>2021-03-04T08:27:25.494Z</time>
      </trkpt>
      <trkpt lat="45.0329" lon="4.50768">
        <ele>804.52</ele>
        <time>2021-03-04T08:27:46.000Z</time>
      </trkpt>
      <trkpt lat="45.03289" lon="4.5082">
        <ele>806.63</ele>
        <time>2021-03-04T08:28:14.000Z</time>
      </trkpt>
      <trkpt lat="45.03289" lon="4.50851">
        <ele>810.73</ele>
        <time>2021-03-04T08:28:34.692Z</time>
      </trkpt>
      <trkpt lat="45.0329" lon="4.50881">
        <ele>814.44</ele>
        <time>2021-03-04T08:28:55.000Z</time>
      </trkpt>
      <trkpt lat="45.03294" lon="4.50922">
        <ele>821.04</ele>
        <time>2021-03-04T08:29:26.000Z</time>
      </trkpt>
      <trkpt lat="45.03299" lon="4.50947">
        <ele>825.71</ele>
        <time>2021-03-04T08:29:47.000Z</time>
      </trkpt>
      <trkpt lat="45.03312" lon="4.5099">
        <ele>831.45</ele>
        <time>2021-03-04T08:30:17.000Z</time>
      </trkpt>
      <trkpt lat="45.03314" lon="4.51017">
        <ele>834.67</ele>
        <time>2021-03-04T08:30:36.213Z</time>
      </trkpt>
      <trkpt lat="45.03321" lon="4.51047">
        <ele>837.01</ele>
        <time>2021-03-04T08:30:54.886Z</time>
      </trkpt>
      <trkpt lat="45.03328" lon="4.51089">
        <ele>840.58</ele>
        <time>2021-03-04T08:31:24.000Z</time>
      </trkpt>
      <trkpt lat="45.03321" lon="4.51117">
        <ele>844.86</ele>
        <time>2021-03-04T08:31:45.000Z</time>
      </trkpt>
      <trkpt lat="45.03325" lon="4.51136">
        <ele>847.08</ele>
        <time>2021-03-04T08:32:04.450Z</time>
      </trkpt>
      <trkpt lat="45.03317" lon="4.51174">
        <ele>849.17</ele>
        <time>2021-03-04T08:32:34.000Z</time>
      </trkpt>
      <trkpt lat="45.03309" lon="4.51203">
        <ele>848.27</ele>
        <time>2021-03-04T08:32:53.113Z</time>
      </trkpt>
      <trkpt lat="45.03338" lon="4.51226">
        <ele>848.54</ele>
        <time>2021-03-04T08:33:20.732Z</time>
      </trkpt>
      <trkpt lat="45.0336" lon="4.51241">
        <ele>848.16</ele>
        <time>2021-03-04T08:33:39.992Z</time>
      </trkpt>
      <trkpt lat="45.03379" lon="4.5126">
        <ele>848.2</ele>
        <time>2021-03-04T08:33:58.867Z</time>
      </trkpt>
      <trkpt lat="45.03411" lon="4.51288">
        <ele>849.49</ele>
        <time>2021-03-04T08:34:26.999Z</time>
      </trkpt>
      <trkpt lat="45.03425" lon="4.51312">
        <ele>851.9</ele>
        <time>2021-03-04T08:34:45.586Z</time>
      </trkpt>
      <trkpt lat="45.03442" lon="4.51348">
        <ele>856.29</ele>
        <time>2021-03-04T08:35:14.999Z</time>
      </trkpt>
      <trkpt lat="45.03455" lon="4.51376">
        <ele>859.33</ele>
        <time>2021-03-04T08:35:34.625Z</time>
      </trkpt>
      <trkpt lat="45.03463" lon="4.51398">
        <ele>861.86</ele>
        <time>2021-03-04T08:35:53.999Z</time>
      </trkpt>
      <trkpt lat="45.03481" lon="4.5144">
        <ele>865.57</ele>
        <time>2021-03-04T08:36:23.999Z</time>
      </trkpt>
      <trkpt lat="45.03495" lon="4.51471">
        <ele>867.96</ele>
        <time>2021-03-04T08:36:42.999Z</time>
      </trkpt>
      <trkpt lat="45.03505" lon="4.51501">
        <ele>871.38</ele>
        <time>2021-03-04T08:37:01.999Z</time>
      </trkpt>
      <trkpt lat="45.03518" lon="4.5153">
        <ele>878.21</ele>
        <time>2021-03-04T08:37:31.999Z</time>
      </trkpt>
      <trkpt lat="45.03533" lon="4.51534">
        <ele>881.88</ele>
        <time>2021-03-04T08:37:51.999Z</time>
      </trkpt>
      <trkpt lat="45.03545" lon="4.51567">
        <ele>886.98</ele>
        <time>2021-03-04T08:38:21.999Z</time>
      </trkpt>
      <trkpt lat="45.03559" lon="4.51574">
        <ele>889.65</ele>
        <time>2021-03-04T08:38:41.999Z</time>
      </trkpt>
      <trkpt lat="45.03584" lon="4.5159">
        <ele>893.18</ele>
        <time>2021-03-04T08:39:01.999Z</time>
      </trkpt>
      <trkpt lat="45.03614" lon="4.51603">
        <ele>896.98</ele>
        <time>2021-03-04T08:39:30.999Z</time>
      </trkpt>
      <trkpt lat="45.03633" lon="4.5161">
        <ele>900.62</ele>
        <time>2021-03-04T08:39:50.999Z</time>
      </trkpt>
      <trkpt lat="45.03663" lon="4.51618">
        <ele>907.28</ele>
        <time>2021-03-04T08:40:22.654Z</time>
      </trkpt>
      <trkpt lat="45.0368" lon="4.51621">
        <ele>911.44</ele>
        <time>2021-03-04T08:40:41.250Z</time>
      </trkpt>
      <trkpt lat="45.03695" lon="4.51629">
        <ele>913.61</ele>
        <time>2021-03-04T08:41:00.999Z</time>
      </trkpt>
      <trkpt lat="45.03717" lon="4.51664">
        <ele>917.41</ele>
        <time>2021-03-04T08:41:31.999Z</time>
      </trkpt>
      <trkpt lat="45.0373" lon="4.51677">
        <ele>920.69</ele>
        <time>2021-03-04T08:41:50.704Z</time>
      </trkpt>
      <trkpt lat="45.03753" lon="4.51709">
        <ele>924.83</ele>
        <time>2021-03-04T08:42:19.999Z</time>
      </trkpt>
      <trkpt lat="45.03765" lon="4.51731">
        <ele>927.27</ele>
        <time>2021-03-04T08:42:39.999Z</time>
      </trkpt>
      <trkpt lat="45.0378" lon="4.51757">
        <ele>930.63</ele>
        <time>2021-03-04T08:43:00.234Z</time>
      </trkpt>
      <trkpt lat="45.03795" lon="4.51788">
        <ele>937.14</ele>
        <time>2021-03-04T08:43:29.411Z</time>
      </trkpt>
      <trkpt lat="45.03806" lon="4.51801">
        <ele>940.2</ele>
        <time>2021-03-04T08:43:49.249Z</time>
      </trkpt>
      <trkpt lat="45.03811" lon="4.51821">
        <ele>943.84</ele>
        <time>2021-03-04T08:44:07.428Z</time>
      </trkpt>
      <trkpt lat="45.0382" lon="4.5185">
        <ele>949.56</ele>
        <time>2021-03-04T08:44:37.999Z</time>
      </trkpt>
      <trkpt lat="45.03822" lon="4.5187">
        <ele>952.8</ele>
        <time>2021-03-04T08:44:57.999Z</time>
      </trkpt>
      <trkpt lat="45.03829" lon="4.51895">
        <ele>959.58</ele>
        <time>2021-03-04T08:45:28.108Z</time>
      </trkpt>
      <trkpt lat="45.03834" lon="4.51906">
        <ele>963.52</ele>
        <time>2021-03-04T08:45:48.000Z</time>
      </trkpt>
      <trkpt lat="45.03841" lon="4.51915">
        <ele>967.6</ele>
        <time>2021-03-04T08:46:07.315Z</time>
      </trkpt>
      <trkpt lat="45.0384" lon="4.51924">
        <ele>972.59</ele>
        <time>2021-03-04T08:46:36.092Z</time>
      </trkpt>
      <trkpt lat="45.03842" lon="4.51936">
        <ele>976.33</ele>
        <time>2021-03-04T08:46:56.373Z</time>
      </trkpt>
      <trkpt lat="45.03844" lon="4.5195">
        <ele>981.18</ele>
        <time>2021-03-04T08:47:26.000Z</time>
      </trkpt>
      <trkpt lat="45.03844" lon="4.5196">
        <ele>984.64</ele>
        <time>2021-03-04T08:47:44.570Z</time>
      </trkpt>
      <trkpt lat="45.0385" lon="4.51969">
        <ele>987.72</ele>
        <time>2021-03-04T08:48:04.000Z</time>
      </trkpt>
      <trkpt lat="45.03869" lon="4.5197">
        <ele>985.07</ele>
        <time>2021-03-04T08:48:32.589Z</time>
      </trkpt>
      <trkpt lat="45.03873" lon="4.51975">
        <ele>988.55</ele>
        <time>2021-03-04T08:48:52.000Z</time>
      </trkpt>
      <trkpt lat="45.03883" lon="4.51975">
        <ele>993.62</ele>
        <time>2021-03-04T08:49:22.000Z</time>
      </trkpt>
      <trkpt lat="45.03886" lon="4.51982">
        <ele>997.11</ele>
        <time>2021-03-04T08:49:42.000Z</time>
      </trkpt>
      <trkpt lat="45.03889" lon="4.51982">
        <ele>998.3</ele>
        <time>2021-03-04T08:50:06.593Z</time>
      </trkpt>
      <trkpt lat="45.03892" lon="4.51987">
        <ele>992.98</ele>
        <time>2021-03-04T08:55:31.000Z</time>
      </trkpt>
      <trkpt lat="45.0389" lon="4.51989">
        <ele>990.22</ele>
        <time>2021-03-04T08:57:46.534Z</time>
      </trkpt>
      <trkpt lat="45.03907" lon="4.52004">
        <ele>988.95</ele>
        <time>2021-03-04T08:58:06.999Z</time>
      </trkpt>
      <trkpt lat="45.0393" lon="4.52027">
        <ele>986.13</ele>
        <time>2021-03-04T08:58:35.999Z</time>
      </trkpt>
      <trkpt lat="45.0393" lon="4.52063">
        <ele>983.95</ele>
        <time>2021-03-04T08:58:54.606Z</time>
      </trkpt>
      <trkpt lat="45.03938" lon="4.52102">
        <ele>978.02</ele>
        <time>2021-03-04T08:59:23.191Z</time>
      </trkpt>
      <trkpt lat="45.03941" lon="4.52117">
        <ele>974.35</ele>
        <time>2021-03-04T08:59:41.999Z</time>
      </trkpt>
      <trkpt lat="45.03951" lon="4.52147">
        <ele>970.95</ele>
        <time>2021-03-04T09:00:00.999Z</time>
      </trkpt>
      <trkpt lat="45.03963" lon="4.5219">
        <ele>965.63</ele>
        <time>2021-03-04T09:00:29.999Z</time>
      </trkpt>
      <trkpt lat="45.03965" lon="4.52221">
        <ele>962.02</ele>
        <time>2021-03-04T09:00:49.999Z</time>
      </trkpt>
      <trkpt lat="45.0396" lon="4.52249">
        <ele>960.43</ele>
        <time>2021-03-04T09:01:18.999Z</time>
      </trkpt>
      <trkpt lat="45.03956" lon="4.52278">
        <ele>961.11</ele>
        <time>2021-03-04T09:01:37.999Z</time>
      </trkpt>
      <trkpt lat="45.03954" lon="4.52311">
        <ele>963.86</ele>
        <time>2021-03-04T09:01:57.122Z</time>
      </trkpt>
      <trkpt lat="45.03938" lon="4.52339">
        <ele>964.77</ele>
        <time>2021-03-04T09:02:26.669Z</time>
      </trkpt>
      <trkpt lat="45.03928" lon="4.52368">
        <ele>963.26</ele>
        <time>2021-03-04T09:02:45.120Z</time>
      </trkpt>
      <trkpt lat="45.03918" lon="4.52392">
        <ele>958.79</ele>
        <time>2021-03-04T09:03:04.406Z</time>
      </trkpt>
      <trkpt lat="45.03928" lon="4.52437">
        <ele>956.89</ele>
        <time>2021-03-04T09:03:32.154Z</time>
      </trkpt>
      <trkpt lat="45.03948" lon="4.52462">
        <ele>956.95</ele>
        <time>2021-03-04T09:03:50.635Z</time>
      </trkpt>
      <trkpt lat="45.03965" lon="4.52495">
        <ele>958.65</ele>
        <time>2021-03-04T09:04:18.639Z</time>
      </trkpt>
      <trkpt lat="45.03969" lon="4.52529">
        <ele>960.06</ele>
        <time>2021-03-04T09:04:38.999Z</time>
      </trkpt>
      <trkpt lat="45.03972" lon="4.52567">
        <ele>960.44</ele>
        <time>2021-03-04T09:04:59.999Z</time>
      </trkpt>
      <trkpt lat="45.03974" lon="4.52623">
        <ele>960.31</ele>
        <time>2021-03-04T09:05:28.294Z</time>
      </trkpt>
      <trkpt lat="45.03959" lon="4.52649">
        <ele>957.44</ele>
        <time>2021-03-04T09:05:48.471Z</time>
      </trkpt>
      <trkpt lat="45.03941" lon="4.52672">
        <ele>952.16</ele>
        <time>2021-03-04T09:06:16.999Z</time>
      </trkpt>
      <trkpt lat="45.03931" lon="4.52668">
        <ele>945.98</ele>
        <time>2021-03-04T09:06:37.999Z</time>
      </trkpt>
      <trkpt lat="45.03924" lon="4.52693">
        <ele>945.08</ele>
        <time>2021-03-04T09:06:57.116Z</time>
      </trkpt>
      <trkpt lat="45.03918" lon="4.5274">
        <ele>945.42</ele>
        <time>2021-03-04T09:07:25.115Z</time>
      </trkpt>
      <trkpt lat="45.03918" lon="4.52776">
        <ele>946.63</ele>
        <time>2021-03-04T09:07:43.999Z</time>
      </trkpt>
      <trkpt lat="45.03923" lon="4.52832">
        <ele>948.27</ele>
        <time>2021-03-04T09:08:12.452Z</time>
      </trkpt>
      <trkpt lat="45.0392" lon="4.52867">
        <ele>949.21</ele>
        <time>2021-03-04T09:08:31.014Z</time>
      </trkpt>
      <trkpt lat="45.03924" lon="4.52899">
        <ele>951.82</ele>
        <time>2021-03-04T09:08:49.351Z</time>
      </trkpt>
      <trkpt lat="45.0392" lon="4.52945">
        <ele>954.44</ele>
        <time>2021-03-04T09:09:16.987Z</time>
      </trkpt>
      <trkpt lat="45.03916" lon="4.52979">
        <ele>954.51</ele>
        <time>2021-03-04T09:09:36.000Z</time>
      </trkpt>
      <trkpt lat="45.03911" lon="4.53008">
        <ele>952.6</ele>
        <time>2021-03-04T09:09:55.000Z</time>
      </trkpt>
      <trkpt lat="45.03906" lon="4.53043">
        <ele>949.84</ele>
        <time>2021-03-04T09:10:22.856Z</time>
      </trkpt>
      <trkpt lat="45.03899" lon="4.53083">
        <ele>947.28</ele>
        <time>2021-03-04T09:10:42.000Z</time>
      </trkpt>
      <trkpt lat="45.03901" lon="4.53145">
        <ele>941.77</ele>
        <time>2021-03-04T09:11:10.144Z</time>
      </trkpt>
      <trkpt lat="45.03903" lon="4.53171">
        <ele>937.61</ele>
        <time>2021-03-04T09:11:28.576Z</time>
      </trkpt>
      <trkpt lat="45.03896" lon="4.53166">
        <ele>934.83</ele>
        <time>2021-03-04T09:11:47.000Z</time>
      </trkpt>
      <trkpt lat="45.03885" lon="4.53161">
        <ele>931.17</ele>
        <time>2021-03-04T09:12:14.654Z</time>
      </trkpt>
      <trkpt lat="45.03897" lon="4.53181">
        <ele>932.9</ele>
        <time>2021-03-04T09:12:33.488Z</time>
      </trkpt>
      <trkpt lat="45.03908" lon="4.53207">
        <ele>935.33</ele>
        <time>2021-03-04T09:13:03.373Z</time>
      </trkpt>
      <trkpt lat="45.03913" lon="4.53234">
        <ele>936.17</ele>
        <time>2021-03-04T09:13:23.012Z</time>
      </trkpt>
      <trkpt lat="45.03922" lon="4.53265">
        <ele>936.82</ele>
        <time>2021-03-04T09:13:42.210Z</time>
      </trkpt>
      <trkpt lat="45.03931" lon="4.5331">
        <ele>938.01</ele>
        <time>2021-03-04T09:14:11.000Z</time>
      </trkpt>
      <trkpt lat="45.03942" lon="4.53341">
        <ele>938.84</ele>
        <time>2021-03-04T09:14:31.000Z</time>
      </trkpt>
      <trkpt lat="45.03943" lon="4.53374">
        <ele>940.1</ele>
        <time>2021-03-04T09:14:50.000Z</time>
      </trkpt>
      <trkpt lat="45.03922" lon="4.53411">
        <ele>939.06</ele>
        <time>2021-03-04T09:15:17.575Z</time>
      </trkpt>
      <trkpt lat="45.03904" lon="4.53438">
        <ele>939.88</ele>
        <time>2021-03-04T09:15:38.000Z</time>
      </trkpt>
      <trkpt lat="45.03883" lon="4.53477">
        <ele>942.67</ele>
        <time>2021-03-04T09:16:05.709Z</time>
      </trkpt>
      <trkpt lat="45.0387" lon="4.53505">
        <ele>944.48</ele>
        <time>2021-03-04T09:16:23.788Z</time>
      </trkpt>
      <trkpt lat="45.03857" lon="4.5353">
        <ele>945.72</ele>
        <time>2021-03-04T09:16:43.000Z</time>
      </trkpt>
      <trkpt lat="45.0384" lon="4.53573">
        <ele>947.78</ele>
        <time>2021-03-04T09:17:11.672Z</time>
      </trkpt>
      <trkpt lat="45.03824" lon="4.53596">
        <ele>949.16</ele>
        <time>2021-03-04T09:17:32.000Z</time>
      </trkpt>
      <trkpt lat="45.03822" lon="4.53614">
        <ele>952.02</ele>
        <time>2021-03-04T09:18:02.000Z</time>
      </trkpt>
      <trkpt lat="45.03846" lon="4.536">
        <ele>953.03</ele>
        <time>2021-03-04T09:18:21.607Z</time>
      </trkpt>
      <trkpt lat="45.03864" lon="4.53586">
        <ele>955.63</ele>
        <time>2021-03-04T09:18:41.000Z</time>
      </trkpt>
      <trkpt lat="45.0389" lon="4.53602">
        <ele>961.27</ele>
        <time>2021-03-04T09:19:09.333Z</time>
      </trkpt>
      <trkpt lat="45.03901" lon="4.53616">
        <ele>964.62</ele>
        <time>2021-03-04T09:19:28.354Z</time>
      </trkpt>
      <trkpt lat="45.03927" lon="4.5359">
        <ele>967.48</ele>
        <time>2021-03-04T09:19:57.999Z</time>
      </trkpt>
      <trkpt lat="45.03949" lon="4.53592">
        <ele>970.18</ele>
        <time>2021-03-04T09:20:17.688Z</time>
      </trkpt>
      <trkpt lat="45.03968" lon="4.53594">
        <ele>973.47</ele>
        <time>2021-03-04T09:20:38.284Z</time>
      </trkpt>
      <trkpt lat="45.03987" lon="4.536">
        <ele>976.58</ele>
        <time>2021-03-04T09:21:06.999Z</time>
      </trkpt>
      <trkpt lat="45.04005" lon="4.53602">
        <ele>978.48</ele>
        <time>2021-03-04T09:21:26.209Z</time>
      </trkpt>
      <trkpt lat="45.04013" lon="4.53598">
        <ele>979.93</ele>
        <time>2021-03-04T09:21:45.999Z</time>
      </trkpt>
      <trkpt lat="45.04038" lon="4.53593">
        <ele>980.96</ele>
        <time>2021-03-04T09:22:13.575Z</time>
      </trkpt>
      <trkpt lat="45.04071" lon="4.53595">
        <ele>982.5</ele>
        <time>2021-03-04T09:22:32.572Z</time>
      </trkpt>
      <trkpt lat="45.04121" lon="4.53575">
        <ele>985.23</ele>
        <time>2021-03-04T09:23:01.999Z</time>
      </trkpt>
      <trkpt lat="45.04146" lon="4.53575">
        <ele>987.39</ele>
        <time>2021-03-04T09:23:20.999Z</time>
      </trkpt>
      <trkpt lat="45.04168" lon="4.53573">
        <ele>989.38</ele>
        <time>2021-03-04T09:23:40.280Z</time>
      </trkpt>
      <trkpt lat="45.04193" lon="4.53574">
        <ele>992.4</ele>
        <time>2021-03-04T09:24:07.729Z</time>
      </trkpt>
      <trkpt lat="45.04213" lon="4.53571">
        <ele>993.8</ele>
        <time>2021-03-04T09:24:26.534Z</time>
      </trkpt>
      <trkpt lat="45.0424" lon="4.53574">
        <ele>995.4</ele>
        <time>2021-03-04T09:24:54.999Z</time>
      </trkpt>
      <trkpt lat="45.04269" lon="4.53575">
        <ele>997.16</ele>
        <time>2021-03-04T09:25:13.234Z</time>
      </trkpt>
      <trkpt lat="45.04292" lon="4.53576">
        <ele>999.58</ele>
        <time>2021-03-04T09:25:33.691Z</time>
      </trkpt>
      <trkpt lat="45.0432" lon="4.53582">
        <ele>1002.49</ele>
        <time>2021-03-04T09:26:02.999Z</time>
      </trkpt>
      <trkpt lat="45.04338" lon="4.53584">
        <ele>1004.5</ele>
        <time>2021-03-04T09:26:21.999Z</time>
      </trkpt>
      <trkpt lat="45.04363" lon="4.53583">
        <ele>1005.02</ele>
        <time>2021-03-04T09:26:41.999Z</time>
      </trkpt>
      <trkpt lat="45.04395" lon="4.53562">
        <ele>1005.92</ele>
        <time>2021-03-04T09:27:11.210Z</time>
      </trkpt>
      <trkpt lat="45.04411" lon="4.5355">
        <ele>1006.29</ele>
        <time>2021-03-04T09:27:30.999Z</time>
      </trkpt>
      <trkpt lat="45.04451" lon="4.53509">
        <ele>1008.53</ele>
        <time>2021-03-04T09:27:58.516Z</time>
      </trkpt>
      <trkpt lat="45.04465" lon="4.53483">
        <ele>1009.96</ele>
        <time>2021-03-04T09:28:16.814Z</time>
      </trkpt>
      <trkpt lat="45.04477" lon="4.53457">
        <ele>1011.5</ele>
        <time>2021-03-04T09:28:35.432Z</time>
      </trkpt>
      <trkpt lat="45.04488" lon="4.53413">
        <ele>1013.74</ele>
        <time>2021-03-04T09:29:03.366Z</time>
      </trkpt>
      <trkpt lat="45.04497" lon="4.53387">
        <ele>1014.85</ele>
        <time>2021-03-04T09:29:21.676Z</time>
      </trkpt>
      <trkpt lat="45.04516" lon="4.53348">
        <ele>1017.16</ele>
        <time>2021-03-04T09:29:50.550Z</time>
      </trkpt>
      <trkpt lat="45.04517" lon="4.5332">
        <ele>1019.99</ele>
        <time>2021-03-04T09:30:09.147Z</time>
      </trkpt>
      <trkpt lat="45.04516" lon="4.53289">
        <ele>1022.05</ele>
        <time>2021-03-04T09:30:28.017Z</time>
      </trkpt>
      <trkpt lat="45.04518" lon="4.53242">
        <ele>1023.66</ele>
        <time>2021-03-04T09:30:56.154Z</time>
      </trkpt>
      <trkpt lat="45.0452" lon="4.53215">
        <ele>1024.25</ele>
        <time>2021-03-04T09:31:14.370Z</time>
      </trkpt>
      <trkpt lat="45.04531" lon="4.53169">
        <ele>1024.01</ele>
        <time>2021-03-04T09:31:43.267Z</time>
      </trkpt>
      <trkpt lat="45.04538" lon="4.53141">
        <ele>1023.92</ele>
        <time>2021-03-04T09:32:02.000Z</time>
      </trkpt>
      <trkpt lat="45.04542" lon="4.53107">
        <ele>1023.58</ele>
        <time>2021-03-04T09:32:20.650Z</time>
      </trkpt>
      <trkpt lat="45.04548" lon="4.53059">
        <ele>1023.68</ele>
        <time>2021-03-04T09:32:50.000Z</time>
      </trkpt>
      <trkpt lat="45.04566" lon="4.53082">
        <ele>1023.77</ele>
        <time>2021-03-04T09:33:10.362Z</time>
      </trkpt>
      <trkpt lat="45.0458" lon="4.53107">
        <ele>1023.82</ele>
        <time>2021-03-04T09:33:29.112Z</time>
      </trkpt>
      <trkpt lat="45.046" lon="4.53148">
        <ele>1023.48</ele>
        <time>2021-03-04T09:33:57.789Z</time>
      </trkpt>
      <trkpt lat="45.04618" lon="4.53172">
        <ele>1023.77</ele>
        <time>2021-03-04T09:34:16.790Z</time>
      </trkpt>
      <trkpt lat="45.04648" lon="4.53197">
        <ele>1023.98</ele>
        <time>2021-03-04T09:34:46.000Z</time>
      </trkpt>
      <trkpt lat="45.04671" lon="4.53213">
        <ele>1024.42</ele>
        <time>2021-03-04T09:35:05.120Z</time>
      </trkpt>
      <trkpt lat="45.04692" lon="4.53228">
        <ele>1025.22</ele>
        <time>2021-03-04T09:35:24.192Z</time>
      </trkpt>
      <trkpt lat="45.04724" lon="4.53246">
        <ele>1026.39</ele>
        <time>2021-03-04T09:35:53.000Z</time>
      </trkpt>
      <trkpt lat="45.04746" lon="4.53261">
        <ele>1027.66</ele>
        <time>2021-03-04T09:36:11.147Z</time>
      </trkpt>
      <trkpt lat="45.04775" lon="4.53272">
        <ele>1027.21</ele>
        <time>2021-03-04T09:36:39.000Z</time>
      </trkpt>
      <trkpt lat="45.04798" lon="4.53284">
        <ele>1027.16</ele>
        <time>2021-03-04T09:36:58.000Z</time>
      </trkpt>
      <trkpt lat="45.04819" lon="4.53302">
        <ele>1027.61</ele>
        <time>2021-03-04T09:37:16.673Z</time>
      </trkpt>
      <trkpt lat="45.04849" lon="4.5332">
        <ele>1027.31</ele>
        <time>2021-03-04T09:37:45.191Z</time>
      </trkpt>
      <trkpt lat="45.04849" lon="4.53321">
        <ele>1027.19</ele>
        <time>2021-03-04T09:38:10.289Z</time>
      </trkpt>
      <trkpt lat="45.04848" lon="4.53316">
        <ele>1027.76</ele>
        <time>2021-03-04T09:38:47.000Z</time>
      </trkpt>
      <trkpt lat="45.04869" lon="4.53334">
        <ele>1027.11</ele>
        <time>2021-03-04T09:42:20.207Z</time>
      </trkpt>
      <trkpt lat="45.04888" lon="4.5336">
        <ele>1025.99</ele>
        <time>2021-03-04T09:42:39.199Z</time>
      </trkpt>
      <trkpt lat="45.04911" lon="4.53397">
        <ele>1024.32</ele>
        <time>2021-03-04T09:43:07.109Z</time>
      </trkpt>
      <trkpt lat="45.04921" lon="4.53427">
        <ele>1022.13</ele>
        <time>2021-03-04T09:43:25.852Z</time>
      </trkpt>
      <trkpt lat="45.04935" lon="4.53451">
        <ele>1019.94</ele>
        <time>2021-03-04T09:43:44.149Z</time>
      </trkpt>
      <trkpt lat="45.04963" lon="4.53487">
        <ele>1016.64</ele>
        <time>2021-03-04T09:44:13.999Z</time>
      </trkpt>
      <trkpt lat="45.04986" lon="4.53506">
        <ele>1016.33</ele>
        <time>2021-03-04T09:44:32.672Z</time>
      </trkpt>
      <trkpt lat="45.05017" lon="4.53521">
        <ele>1016.7</ele>
        <time>2021-03-04T09:45:00.407Z</time>
      </trkpt>
      <trkpt lat="45.05038" lon="4.53539">
        <ele>1016.73</ele>
        <time>2021-03-04T09:45:20.999Z</time>
      </trkpt>
      <trkpt lat="45.05062" lon="4.53559">
        <ele>1016.51</ele>
        <time>2021-03-04T09:45:39.714Z</time>
      </trkpt>
      <trkpt lat="45.05084" lon="4.53589">
        <ele>1013.8</ele>
        <time>2021-03-04T09:46:07.454Z</time>
      </trkpt>
      <trkpt lat="45.05108" lon="4.53598">
        <ele>1011.5</ele>
        <time>2021-03-04T09:46:25.535Z</time>
      </trkpt>
      <trkpt lat="45.05136" lon="4.53614">
        <ele>1008.8</ele>
        <time>2021-03-04T09:46:52.999Z</time>
      </trkpt>
      <trkpt lat="45.05158" lon="4.5363">
        <ele>1008.02</ele>
        <time>2021-03-04T09:47:12.999Z</time>
      </trkpt>
      <trkpt lat="45.05171" lon="4.53635">
        <ele>1006.78</ele>
        <time>2021-03-04T09:47:31.290Z</time>
      </trkpt>
      <trkpt lat="45.05202" lon="4.5362">
        <ele>1003.03</ele>
        <time>2021-03-04T09:47:58.999Z</time>
      </trkpt>
      <trkpt lat="45.05205" lon="4.53614">
        <ele>1002.55</ele>
        <time>2021-03-04T09:48:18.999Z</time>
      </trkpt>
      <trkpt lat="45.05216" lon="4.53611">
        <ele>999.69</ele>
        <time>2021-03-04T09:48:37.999Z</time>
      </trkpt>
      <trkpt lat="45.05246" lon="4.53588">
        <ele>994.42</ele>
        <time>2021-03-04T09:49:06.630Z</time>
      </trkpt>
      <trkpt lat="45.05257" lon="4.53574">
        <ele>990.82</ele>
        <time>2021-03-04T09:49:24.832Z</time>
      </trkpt>
      <trkpt lat="45.05285" lon="4.53551">
        <ele>987.56</ele>
        <time>2021-03-04T09:49:52.833Z</time>
      </trkpt>
      <trkpt lat="45.05302" lon="4.53543">
        <ele>986.55</ele>
        <time>2021-03-04T09:50:11.999Z</time>
      </trkpt>
      <trkpt lat="45.05329" lon="4.53532">
        <ele>986.31</ele>
        <time>2021-03-04T09:50:31.032Z</time>
      </trkpt>
      <trkpt lat="45.05367" lon="4.53526">
        <ele>987.19</ele>
        <time>2021-03-04T09:50:59.245Z</time>
      </trkpt>
      <trkpt lat="45.05391" lon="4.53519">
        <ele>987.03</ele>
        <time>2021-03-04T09:51:19.552Z</time>
      </trkpt>
      <trkpt lat="45.05409" lon="4.53511">
        <ele>984.34</ele>
        <time>2021-03-04T09:51:49.000Z</time>
      </trkpt>
      <trkpt lat="45.05428" lon="4.53499">
        <ele>980.43</ele>
        <time>2021-03-04T09:52:10.000Z</time>
      </trkpt>
      <trkpt lat="45.05444" lon="4.53475">
        <ele>977.87</ele>
        <time>2021-03-04T09:52:28.516Z</time>
      </trkpt>
      <trkpt lat="45.05465" lon="4.53444">
        <ele>975.26</ele>
        <time>2021-03-04T09:52:58.000Z</time>
      </trkpt>
      <trkpt lat="45.05476" lon="4.53423">
        <ele>972.74</ele>
        <time>2021-03-04T09:53:17.388Z</time>
      </trkpt>
      <trkpt lat="45.05487" lon="4.53402">
        <ele>970.56</ele>
        <time>2021-03-04T09:53:36.000Z</time>
      </trkpt>
      <trkpt lat="45.05506" lon="4.53366">
        <ele>967.96</ele>
        <time>2021-03-04T09:54:05.000Z</time>
      </trkpt>
      <trkpt lat="45.05519" lon="4.53335">
        <ele>966.68</ele>
        <time>2021-03-04T09:54:23.373Z</time>
      </trkpt>
      <trkpt lat="45.05544" lon="4.53306">
        <ele>961.72</ele>
        <time>2021-03-04T09:54:52.000Z</time>
      </trkpt>
      <trkpt lat="45.05566" lon="4.53293">
        <ele>958.03</ele>
        <time>2021-03-04T09:55:10.510Z</time>
      </trkpt>
      <trkpt lat="45.0559" lon="4.53289">
        <ele>953.62</ele>
        <time>2021-03-04T09:55:29.450Z</time>
      </trkpt>
      <trkpt lat="45.05616" lon="4.53288">
        <ele>947.35</ele>
        <time>2021-03-04T09:55:58.134Z</time>
      </trkpt>
      <trkpt lat="45.05637" lon="4.53295">
        <ele>943.97</ele>
        <time>2021-03-04T09:56:18.000Z</time>
      </trkpt>
      <trkpt lat="45.05681" lon="4.53323">
        <ele>938.41</ele>
        <time>2021-03-04T09:56:46.489Z</time>
      </trkpt>
      <trkpt lat="45.05701" lon="4.53337">
        <ele>935.96</ele>
        <time>2021-03-04T09:57:05.306Z</time>
      </trkpt>
      <trkpt lat="45.05723" lon="4.53335">
        <ele>932.17</ele>
        <time>2021-03-04T09:57:25.000Z</time>
      </trkpt>
      <trkpt lat="45.05763" lon="4.53332">
        <ele>927.3</ele>
        <time>2021-03-04T09:57:55.000Z</time>
      </trkpt>
      <trkpt lat="45.05788" lon="4.53326">
        <ele>924.23</ele>
        <time>2021-03-04T09:58:14.325Z</time>
      </trkpt>
      <trkpt lat="45.05817" lon="4.53304">
        <ele>921.86</ele>
        <time>2021-03-04T09:58:42.294Z</time>
      </trkpt>
      <trkpt lat="45.05839" lon="4.53298">
        <ele>920.01</ele>
        <time>2021-03-04T09:59:02.000Z</time>
      </trkpt>
      <trkpt lat="45.05857" lon="4.53299">
        <ele>918.67</ele>
        <time>2021-03-04T09:59:20.387Z</time>
      </trkpt>
      <trkpt lat="45.05882" lon="4.53307">
        <ele>917.25</ele>
        <time>2021-03-04T09:59:50.544Z</time>
      </trkpt>
      <trkpt lat="45.05875" lon="4.53303">
        <ele>917.49</ele>
        <time>2021-03-04T10:00:14.000Z</time>
      </trkpt>
      <trkpt lat="45.05872" lon="4.53305">
        <ele>917.75</ele>
        <time>2021-03-04T10:00:43.292Z</time>
      </trkpt>
      <trkpt lat="45.05863" lon="4.53315">
        <ele>919.43</ele>
        <time>2021-03-04T10:01:18.000Z</time>
      </trkpt>
      <trkpt lat="45.05868" lon="4.53318">
        <ele>919.78</ele>
        <time>2021-03-04T10:01:38.000Z</time>
      </trkpt>
      <trkpt lat="45.05859" lon="4.53328">
        <ele>920.29</ele>
        <time>2021-03-04T10:02:07.000Z</time>
      </trkpt>
      <trkpt lat="45.05846" lon="4.53325">
        <ele>921.47</ele>
        <time>2021-03-04T10:02:26.999Z</time>
      </trkpt>
      <trkpt lat="45.05859" lon="4.53326">
        <ele>920.6</ele>
        <time>2021-03-04T10:02:49.029Z</time>
      </trkpt>
      <trkpt lat="45.05865" lon="4.53341">
        <ele>920.84</ele>
        <time>2021-03-04T10:03:18.999Z</time>
      </trkpt>
      <trkpt lat="45.0587" lon="4.53323">
        <ele>919.65</ele>
        <time>2021-03-04T10:03:37.476Z</time>
      </trkpt>
      <trkpt lat="45.05887" lon="4.53309">
        <ele>917.59</ele>
        <time>2021-03-04T10:04:19.999Z</time>
      </trkpt>
      <trkpt lat="45.05899" lon="4.53294">
        <ele>916.45</ele>
        <time>2021-03-04T10:04:38.999Z</time>
      </trkpt>
      <trkpt lat="45.0592" lon="4.53292">
        <ele>916.35</ele>
        <time>2021-03-04T10:04:58.999Z</time>
      </trkpt>
      <trkpt lat="45.05926" lon="4.53281">
        <ele>919.39</ele>
        <time>2021-03-04T10:05:57.999Z</time>
      </trkpt>
      <trkpt lat="45.05938" lon="4.53271">
        <ele>922.34</ele>
        <time>2021-03-04T10:06:17.999Z</time>
      </trkpt>
      <trkpt lat="45.05951" lon="4.53259">
        <ele>925.75</ele>
        <time>2021-03-04T10:06:36.999Z</time>
      </trkpt>
      <trkpt lat="45.0597" lon="4.53255">
        <ele>930.29</ele>
        <time>2021-03-04T10:07:05.010Z</time>
      </trkpt>
      <trkpt lat="45.05984" lon="4.53254">
        <ele>933.27</ele>
        <time>2021-03-04T10:07:23.999Z</time>
      </trkpt>
      <trkpt lat="45.06006" lon="4.53245">
        <ele>939.17</ele>
        <time>2021-03-04T10:07:53.895Z</time>
      </trkpt>
      <trkpt lat="45.06021" lon="4.53236">
        <ele>942.39</ele>
        <time>2021-03-04T10:08:12.999Z</time>
      </trkpt>
      <trkpt lat="45.06031" lon="4.53227">
        <ele>945.98</ele>
        <time>2021-03-04T10:08:32.999Z</time>
      </trkpt>
      <trkpt lat="45.0606" lon="4.53227">
        <ele>950.66</ele>
        <time>2021-03-04T10:09:00.999Z</time>
      </trkpt>
      <trkpt lat="45.06071" lon="4.53228">
        <ele>953.71</ele>
        <time>2021-03-04T10:09:19.999Z</time>
      </trkpt>
      <trkpt lat="45.06099" lon="4.53227">
        <ele>958.98</ele>
        <time>2021-03-04T10:09:47.999Z</time>
      </trkpt>
      <trkpt lat="45.0612" lon="4.53224">
        <ele>962.92</ele>
        <time>2021-03-04T10:10:07.999Z</time>
      </trkpt>
      <trkpt lat="45.06131" lon="4.53224">
        <ele>966.8</ele>
        <time>2021-03-04T10:10:27.999Z</time>
      </trkpt>
      <trkpt lat="45.06154" lon="4.53223">
        <ele>972.67</ele>
        <time>2021-03-04T10:10:56.999Z</time>
      </trkpt>
      <trkpt lat="45.06169" lon="4.53223">
        <ele>976.71</ele>
        <time>2021-03-04T10:11:16.430Z</time>
      </trkpt>
      <trkpt lat="45.06188" lon="4.53225">
        <ele>982.71</ele>
        <time>2021-03-04T10:11:45.999Z</time>
      </trkpt>
      <trkpt lat="45.06202" lon="4.53226">
        <ele>986.62</ele>
        <time>2021-03-04T10:12:04.353Z</time>
      </trkpt>
      <trkpt lat="45.06217" lon="4.53236">
        <ele>990.71</ele>
        <time>2021-03-04T10:12:23.290Z</time>
      </trkpt>
      <trkpt lat="45.06238" lon="4.53248">
        <ele>995</ele>
        <time>2021-03-04T10:12:52.999Z</time>
      </trkpt>
      <trkpt lat="45.06258" lon="4.53257">
        <ele>998.78</ele>
        <time>2021-03-04T10:13:13.999Z</time>
      </trkpt>
      <trkpt lat="45.06261" lon="4.53259">
        <ele>1000.03</ele>
        <time>2021-03-04T10:13:41.000Z</time>
      </trkpt>
      <trkpt lat="45.06259" lon="4.53261">
        <ele>1000.15</ele>
        <time>2021-03-04T10:14:29.000Z</time>
      </trkpt>
      <trkpt lat="45.06279" lon="4.53288">
        <ele>1001.24</ele>
        <time>2021-03-04T10:14:47.956Z</time>
      </trkpt>
      <trkpt lat="45.06304" lon="4.53293">
        <ele>1004.56</ele>
        <time>2021-03-04T10:15:18.000Z</time>
      </trkpt>
      <trkpt lat="45.06311" lon="4.53268">
        <ele>1007.65</ele>
        <time>2021-03-04T10:15:38.027Z</time>
      </trkpt>
      <trkpt lat="45.06323" lon="4.53249">
        <ele>1010.44</ele>
        <time>2021-03-04T10:16:00.000Z</time>
      </trkpt>
      <trkpt lat="45.06326" lon="4.53233">
        <ele>1011.79</ele>
        <time>2021-03-04T10:16:33.000Z</time>
      </trkpt>
      <trkpt lat="45.06331" lon="4.53204">
        <ele>1013.46</ele>
        <time>2021-03-04T10:16:51.490Z</time>
      </trkpt>
      <trkpt lat="45.06338" lon="4.53165">
        <ele>1015.94</ele>
        <time>2021-03-04T10:17:19.000Z</time>
      </trkpt>
      <trkpt lat="45.06344" lon="4.53136">
        <ele>1017.69</ele>
        <time>2021-03-04T10:17:39.000Z</time>
      </trkpt>
      <trkpt lat="45.06348" lon="4.53107">
        <ele>1018.9</ele>
        <time>2021-03-04T10:17:58.271Z</time>
      </trkpt>
      <trkpt lat="45.06365" lon="4.53063">
        <ele>1021.36</ele>
        <time>2021-03-04T10:18:28.000Z</time>
      </trkpt>
      <trkpt lat="45.0638" lon="4.53041">
        <ele>1023.65</ele>
        <time>2021-03-04T10:18:47.000Z</time>
      </trkpt>
      <trkpt lat="45.06392" lon="4.53015">
        <ele>1026.39</ele>
        <time>2021-03-04T10:19:05.375Z</time>
      </trkpt>
      <trkpt lat="45.06414" lon="4.52989">
        <ele>1030.61</ele>
        <time>2021-03-04T10:19:36.000Z</time>
      </trkpt>
      <trkpt lat="45.06429" lon="4.52968">
        <ele>1033.14</ele>
        <time>2021-03-04T10:19:55.000Z</time>
      </trkpt>
      <trkpt lat="45.06454" lon="4.52929">
        <ele>1035.42</ele>
        <time>2021-03-04T10:20:24.126Z</time>
      </trkpt>
      <trkpt lat="45.06469" lon="4.529">
        <ele>1036.11</ele>
        <time>2021-03-04T10:20:43.011Z</time>
      </trkpt>
      <trkpt lat="45.06484" lon="4.52886">
        <ele>1036.75</ele>
        <time>2021-03-04T10:21:02.000Z</time>
      </trkpt>
      <trkpt lat="45.06516" lon="4.52876">
        <ele>1038.87</ele>
        <time>2021-03-04T10:21:32.000Z</time>
      </trkpt>
      <trkpt lat="45.0654" lon="4.5287">
        <ele>1041.27</ele>
        <time>2021-03-04T10:21:52.000Z</time>
      </trkpt>
      <trkpt lat="45.06571" lon="4.52876">
        <ele>1045.49</ele>
        <time>2021-03-04T10:22:21.235Z</time>
      </trkpt>
      <trkpt lat="45.06595" lon="4.52883">
        <ele>1046.95</ele>
        <time>2021-03-04T10:22:40.212Z</time>
      </trkpt>
      <trkpt lat="45.06619" lon="4.52886">
        <ele>1047.06</ele>
        <time>2021-03-04T10:23:02.000Z</time>
      </trkpt>
      <trkpt lat="45.06656" lon="4.52895">
        <ele>1048.17</ele>
        <time>2021-03-04T10:23:30.933Z</time>
      </trkpt>
      <trkpt lat="45.06676" lon="4.52897">
        <ele>1047.23</ele>
        <time>2021-03-04T10:23:49.531Z</time>
      </trkpt>
      <trkpt lat="45.0671" lon="4.5289">
        <ele>1044.28</ele>
        <time>2021-03-04T10:24:19.000Z</time>
      </trkpt>
      <trkpt lat="45.06735" lon="4.52899">
        <ele>1042.47</ele>
        <time>2021-03-04T10:24:38.495Z</time>
      </trkpt>
      <trkpt lat="45.06757" lon="4.52902">
        <ele>1040.43</ele>
        <time>2021-03-04T10:24:56.872Z</time>
      </trkpt>
      <trkpt lat="45.0679" lon="4.52902">
        <ele>1036.53</ele>
        <time>2021-03-04T10:25:25.689Z</time>
      </trkpt>
      <trkpt lat="45.06815" lon="4.5291">
        <ele>1034.32</ele>
        <time>2021-03-04T10:25:44.105Z</time>
      </trkpt>
      <trkpt lat="45.06832" lon="4.52926">
        <ele>1033.49</ele>
        <time>2021-03-04T10:26:02.307Z</time>
      </trkpt>
      <trkpt lat="45.06864" lon="4.52934">
        <ele>1031.53</ele>
        <time>2021-03-04T10:26:30.999Z</time>
      </trkpt>
      <trkpt lat="45.06891" lon="4.52934">
        <ele>1031.68</ele>
        <time>2021-03-04T10:26:50.999Z</time>
      </trkpt>
      <trkpt lat="45.06907" lon="4.52923">
        <ele>1035.29</ele>
        <time>2021-03-04T10:27:18.428Z</time>
      </trkpt>
      <trkpt lat="45.06928" lon="4.52911">
        <ele>1038.91</ele>
        <time>2021-03-04T10:27:38.999Z</time>
      </trkpt>
      <trkpt lat="45.06942" lon="4.52905">
        <ele>1043.24</ele>
        <time>2021-03-04T10:27:58.211Z</time>
      </trkpt>
      <trkpt lat="45.0696" lon="4.52888">
        <ele>1048.63</ele>
        <time>2021-03-04T10:28:28.999Z</time>
      </trkpt>
      <trkpt lat="45.06975" lon="4.52876">
        <ele>1052.2</ele>
        <time>2021-03-04T10:28:48.255Z</time>
      </trkpt>
      <trkpt lat="45.07002" lon="4.5286">
        <ele>1057.47</ele>
        <time>2021-03-04T10:29:18.333Z</time>
      </trkpt>
      <trkpt lat="45.07016" lon="4.52852">
        <ele>1059.7</ele>
        <time>2021-03-04T10:29:37.999Z</time>
      </trkpt>
      <trkpt lat="45.07041" lon="4.52841">
        <ele>1060.75</ele>
        <time>2021-03-04T10:29:57.550Z</time>
      </trkpt>
      <trkpt lat="45.07067" lon="4.52825">
        <ele>1060.99</ele>
        <time>2021-03-04T10:30:25.999Z</time>
      </trkpt>
      <trkpt lat="45.0709" lon="4.52818">
        <ele>1059.44</ele>
        <time>2021-03-04T10:30:44.476Z</time>
      </trkpt>
      <trkpt lat="45.07098" lon="4.52814">
        <ele>1058.42</ele>
        <time>2021-03-04T10:31:02.874Z</time>
      </trkpt>
      <trkpt lat="45.07144" lon="4.52789">
        <ele>1057.7</ele>
        <time>2021-03-04T10:31:30.999Z</time>
      </trkpt>
      <trkpt lat="45.07154" lon="4.52769">
        <ele>1057.13</ele>
        <time>2021-03-04T10:31:50.999Z</time>
      </trkpt>
      <trkpt lat="45.07162" lon="4.5273">
        <ele>1052.2</ele>
        <time>2021-03-04T10:32:19.312Z</time>
      </trkpt>
      <trkpt lat="45.07164" lon="4.527">
        <ele>1048.7</ele>
        <time>2021-03-04T10:32:37.668Z</time>
      </trkpt>
      <trkpt lat="45.07163" lon="4.52667">
        <ele>1046.06</ele>
        <time>2021-03-04T10:32:56.999Z</time>
      </trkpt>
      <trkpt lat="45.07157" lon="4.52606">
        <ele>1041.06</ele>
        <time>2021-03-04T10:33:26.475Z</time>
      </trkpt>
      <trkpt lat="45.07154" lon="4.52576">
        <ele>1038.44</ele>
        <time>2021-03-04T10:33:45.433Z</time>
      </trkpt>
      <trkpt lat="45.07138" lon="4.52537">
        <ele>1035.04</ele>
        <time>2021-03-04T10:34:13.011Z</time>
      </trkpt>
      <trkpt lat="45.07127" lon="4.5251">
        <ele>1031.82</ele>
        <time>2021-03-04T10:34:32.999Z</time>
      </trkpt>
      <trkpt lat="45.07117" lon="4.52477">
        <ele>1028.08</ele>
        <time>2021-03-04T10:34:51.810Z</time>
      </trkpt>
      <trkpt lat="45.0711" lon="4.52432">
        <ele>1023.22</ele>
        <time>2021-03-04T10:35:20.152Z</time>
      </trkpt>
      <trkpt lat="45.07108" lon="4.52394">
        <ele>1019.82</ele>
        <time>2021-03-04T10:35:40.000Z</time>
      </trkpt>
      <trkpt lat="45.0711" lon="4.5234">
        <ele>1016.18</ele>
        <time>2021-03-04T10:36:08.567Z</time>
      </trkpt>
      <trkpt lat="45.0711" lon="4.52308">
        <ele>1015.78</ele>
        <time>2021-03-04T10:36:28.000Z</time>
      </trkpt>
      <trkpt lat="45.0711" lon="4.5227">
        <ele>1014.79</ele>
        <time>2021-03-04T10:36:48.000Z</time>
      </trkpt>
      <trkpt lat="45.07111" lon="4.52211">
        <ele>1013.33</ele>
        <time>2021-03-04T10:37:16.212Z</time>
      </trkpt>
      <trkpt lat="45.07114" lon="4.52178">
        <ele>1011.38</ele>
        <time>2021-03-04T10:37:37.000Z</time>
      </trkpt>
      <trkpt lat="45.0712" lon="4.52137">
        <ele>1010.54</ele>
        <time>2021-03-04T10:37:57.000Z</time>
      </trkpt>
      <trkpt lat="45.07124" lon="4.52082">
        <ele>1009.51</ele>
        <time>2021-03-04T10:38:27.000Z</time>
      </trkpt>
      <trkpt lat="45.07125" lon="4.52045">
        <ele>1008.42</ele>
        <time>2021-03-04T10:38:47.000Z</time>
      </trkpt>
      <trkpt lat="45.07125" lon="4.51989">
        <ele>1006.24</ele>
        <time>2021-03-04T10:39:16.000Z</time>
      </trkpt>
      <trkpt lat="45.07125" lon="4.51953">
        <ele>1003.04</ele>
        <time>2021-03-04T10:39:34.614Z</time>
      </trkpt>
      <trkpt lat="45.07129" lon="4.51917">
        <ele>999.17</ele>
        <time>2021-03-04T10:39:53.111Z</time>
      </trkpt>
      <trkpt lat="45.07138" lon="4.51865">
        <ele>993.09</ele>
        <time>2021-03-04T10:40:24.000Z</time>
      </trkpt>
      <trkpt lat="45.07143" lon="4.51826">
        <ele>988.23</ele>
        <time>2021-03-04T10:40:43.608Z</time>
      </trkpt>
      <trkpt lat="45.07145" lon="4.51779">
        <ele>981.46</ele>
        <time>2021-03-04T10:41:13.000Z</time>
      </trkpt>
      <trkpt lat="45.07144" lon="4.51739">
        <ele>976.98</ele>
        <time>2021-03-04T10:41:32.150Z</time>
      </trkpt>
      <trkpt lat="45.07141" lon="4.51705">
        <ele>972.97</ele>
        <time>2021-03-04T10:41:50.528Z</time>
      </trkpt>
      <trkpt lat="45.07134" lon="4.5166">
        <ele>968.17</ele>
        <time>2021-03-04T10:42:19.000Z</time>
      </trkpt>
      <trkpt lat="45.07131" lon="4.51624">
        <ele>965.54</ele>
        <time>2021-03-04T10:42:38.458Z</time>
      </trkpt>
      <trkpt lat="45.0714" lon="4.5157">
        <ele>962.78</ele>
        <time>2021-03-04T10:43:07.000Z</time>
      </trkpt>
      <trkpt lat="45.07143" lon="4.51535">
        <ele>959.61</ele>
        <time>2021-03-04T10:43:25.310Z</time>
      </trkpt>
      <trkpt lat="45.07147" lon="4.51499">
        <ele>956.76</ele>
        <time>2021-03-04T10:43:43.909Z</time>
      </trkpt>
      <trkpt lat="45.07157" lon="4.5145">
        <ele>952.19</ele>
        <time>2021-03-04T10:44:12.227Z</time>
      </trkpt>
      <trkpt lat="45.07159" lon="4.51422">
        <ele>949.47</ele>
        <time>2021-03-04T10:44:30.934Z</time>
      </trkpt>
      <trkpt lat="45.07157" lon="4.5139">
        <ele>947.35</ele>
        <time>2021-03-04T10:44:49.013Z</time>
      </trkpt>
      <trkpt lat="45.07152" lon="4.51343">
        <ele>946.66</ele>
        <time>2021-03-04T10:45:17.171Z</time>
      </trkpt>
      <trkpt lat="45.07156" lon="4.51332">
        <ele>946.34</ele>
        <time>2021-03-04T10:45:37.205Z</time>
      </trkpt>
      <trkpt lat="45.07156" lon="4.51285">
        <ele>947.31</ele>
        <time>2021-03-04T10:46:05.176Z</time>
      </trkpt>
      <trkpt lat="45.07152" lon="4.51256">
        <ele>949.06</ele>
        <time>2021-03-04T10:46:23.974Z</time>
      </trkpt>
      <trkpt lat="45.0714" lon="4.51239">
        <ele>950.64</ele>
        <time>2021-03-04T10:46:42.372Z</time>
      </trkpt>
      <trkpt lat="45.07126" lon="4.51202">
        <ele>951.23</ele>
        <time>2021-03-04T10:47:12.999Z</time>
      </trkpt>
      <trkpt lat="45.07117" lon="4.5117">
        <ele>952.47</ele>
        <time>2021-03-04T10:47:33.999Z</time>
      </trkpt>
      <trkpt lat="45.07129" lon="4.51126">
        <ele>953.19</ele>
        <time>2021-03-04T10:48:02.999Z</time>
      </trkpt>
      <trkpt lat="45.07132" lon="4.51126">
        <ele>953.33</ele>
        <time>2021-03-04T10:48:35.999Z</time>
      </trkpt>
      <trkpt lat="45.07146" lon="4.51098">
        <ele>952.34</ele>
        <time>2021-03-04T10:48:55.388Z</time>
      </trkpt>
      <trkpt lat="45.07172" lon="4.51064">
        <ele>949.31</ele>
        <time>2021-03-04T10:49:23.327Z</time>
      </trkpt>
      <trkpt lat="45.07181" lon="4.5104">
        <ele>948.19</ele>
        <time>2021-03-04T10:49:41.520Z</time>
      </trkpt>
      <trkpt lat="45.07186" lon="4.51011">
        <ele>949.37</ele>
        <time>2021-03-04T10:50:00.999Z</time>
      </trkpt>
      <trkpt lat="45.07205" lon="4.50969">
        <ele>952.72</ele>
        <time>2021-03-04T10:50:29.109Z</time>
      </trkpt>
      <trkpt lat="45.07212" lon="4.50947">
        <ele>955.13</ele>
        <time>2021-03-04T10:50:47.999Z</time>
      </trkpt>
      <trkpt lat="45.0723" lon="4.50906">
        <ele>958.39</ele>
        <time>2021-03-04T10:51:16.434Z</time>
      </trkpt>
      <trkpt lat="45.07233" lon="4.5088">
        <ele>957.83</ele>
        <time>2021-03-04T10:51:34.999Z</time>
      </trkpt>
      <trkpt lat="45.07238" lon="4.50855">
        <ele>956.87</ele>
        <time>2021-03-04T10:51:53.910Z</time>
      </trkpt>
      <trkpt lat="45.07242" lon="4.50807">
        <ele>953.82</ele>
        <time>2021-03-04T10:52:22.999Z</time>
      </trkpt>
      <trkpt lat="45.07254" lon="4.50775">
        <ele>951.22</ele>
        <time>2021-03-04T10:52:43.999Z</time>
      </trkpt>
      <trkpt lat="45.07259" lon="4.50762">
        <ele>949.14</ele>
        <time>2021-03-04T10:53:22.953Z</time>
      </trkpt>
      <trkpt lat="45.07265" lon="4.50729">
        <ele>944.84</ele>
        <time>2021-03-04T10:53:41.630Z</time>
      </trkpt>
      <trkpt lat="45.07278" lon="4.50702">
        <ele>940.33</ele>
        <time>2021-03-04T10:54:02.999Z</time>
      </trkpt>
      <trkpt lat="45.0729" lon="4.50657">
        <ele>933.03</ele>
        <time>2021-03-04T10:54:31.530Z</time>
      </trkpt>
      <trkpt lat="45.07302" lon="4.50636">
        <ele>929.86</ele>
        <time>2021-03-04T10:54:50.165Z</time>
      </trkpt>
      <trkpt lat="45.07319" lon="4.50598">
        <ele>927.08</ele>
        <time>2021-03-04T10:55:17.898Z</time>
      </trkpt>
      <trkpt lat="45.07326" lon="4.50573">
        <ele>926.94</ele>
        <time>2021-03-04T10:55:36.277Z</time>
      </trkpt>
      <trkpt lat="45.07318" lon="4.50548">
        <ele>924.04</ele>
        <time>2021-03-04T10:55:54.995Z</time>
      </trkpt>
      <trkpt lat="45.0733" lon="4.50505">
        <ele>923.64</ele>
        <time>2021-03-04T10:56:23.231Z</time>
      </trkpt>
      <trkpt lat="45.07334" lon="4.50475">
        <ele>920.13</ele>
        <time>2021-03-04T10:56:42.999Z</time>
      </trkpt>
      <trkpt lat="45.07348" lon="4.50447">
        <ele>918.56</ele>
        <time>2021-03-04T10:57:01.912Z</time>
      </trkpt>
      <trkpt lat="45.0736" lon="4.50408">
        <ele>912.62</ele>
        <time>2021-03-04T10:57:31.571Z</time>
      </trkpt>
      <trkpt lat="45.07344" lon="4.50384">
        <ele>909.95</ele>
        <time>2021-03-04T10:57:51.000Z</time>
      </trkpt>
      <trkpt lat="45.0731" lon="4.50367">
        <ele>901.53</ele>
        <time>2021-03-04T10:58:21.000Z</time>
      </trkpt>
      <trkpt lat="45.07288" lon="4.50363">
        <ele>896.53</ele>
        <time>2021-03-04T10:58:40.000Z</time>
      </trkpt>
      <trkpt lat="45.07268" lon="4.50352">
        <ele>890.15</ele>
        <time>2021-03-04T10:59:01.000Z</time>
      </trkpt>
      <trkpt lat="45.0728" lon="4.50307">
        <ele>882.63</ele>
        <time>2021-03-04T10:59:30.000Z</time>
      </trkpt>
      <trkpt lat="45.07298" lon="4.50285">
        <ele>878.25</ele>
        <time>2021-03-04T10:59:50.000Z</time>
      </trkpt>
      <trkpt lat="45.07276" lon="4.50268">
        <ele>870.86</ele>
        <time>2021-03-04T11:00:19.000Z</time>
      </trkpt>
      <trkpt lat="45.07254" lon="4.50252">
        <ele>866.33</ele>
        <time>2021-03-04T11:00:38.032Z</time>
      </trkpt>
      <trkpt lat="45.07243" lon="4.50229">
        <ele>860.71</ele>
        <time>2021-03-04T11:00:57.000Z</time>
      </trkpt>
      <trkpt lat="45.07222" lon="4.50197">
        <ele>852.04</ele>
        <time>2021-03-04T11:01:25.509Z</time>
      </trkpt>
      <trkpt lat="45.07212" lon="4.50184">
        <ele>848.86</ele>
        <time>2021-03-04T11:01:44.685Z</time>
      </trkpt>
      <trkpt lat="45.0721" lon="4.50168">
        <ele>845.08</ele>
        <time>2021-03-04T11:02:04.000Z</time>
      </trkpt>
      <trkpt lat="45.07202" lon="4.50134">
        <ele>839.55</ele>
        <time>2021-03-04T11:02:33.000Z</time>
      </trkpt>
      <trkpt lat="45.07191" lon="4.50107">
        <ele>835.21</ele>
        <time>2021-03-04T11:02:54.000Z</time>
      </trkpt>
      <trkpt lat="45.07168" lon="4.50077">
        <ele>829.24</ele>
        <time>2021-03-04T11:03:22.000Z</time>
      </trkpt>
      <trkpt lat="45.07153" lon="4.50053">
        <ele>823.2</ele>
        <time>2021-03-04T11:03:42.000Z</time>
      </trkpt>
      <trkpt lat="45.07138" lon="4.5004">
        <ele>818.58</ele>
        <time>2021-03-04T11:04:00.432Z</time>
      </trkpt>
      <trkpt lat="45.07114" lon="4.5001">
        <ele>811.01</ele>
        <time>2021-03-04T11:04:28.552Z</time>
      </trkpt>
      <trkpt lat="45.07098" lon="4.49998">
        <ele>807.36</ele>
        <time>2021-03-04T11:04:47.507Z</time>
      </trkpt>
      <trkpt lat="45.07079" lon="4.49968">
        <ele>801.37</ele>
        <time>2021-03-04T11:05:15.476Z</time>
      </trkpt>
      <trkpt lat="45.07072" lon="4.49943">
        <ele>796.51</ele>
        <time>2021-03-04T11:05:34.537Z</time>
      </trkpt>
      <trkpt lat="45.07061" lon="4.4992">
        <ele>791.65</ele>
        <time>2021-03-04T11:05:54.000Z</time>
      </trkpt>
      <trkpt lat="45.07039" lon="4.49887">
        <ele>782.64</ele>
        <time>2021-03-04T11:06:23.536Z</time>
      </trkpt>
      <trkpt lat="45.07026" lon="4.49862">
        <ele>776.54</ele>
        <time>2021-03-04T11:06:44.000Z</time>
      </trkpt>
      <trkpt lat="45.07035" lon="4.4984">
        <ele>772.88</ele>
        <time>2021-03-04T11:07:11.355Z</time>
      </trkpt>
      <trkpt lat="45.0704" lon="4.49847">
        <ele>773.5</ele>
        <time>2021-03-04T11:07:56.000Z</time>
      </trkpt>
      <trkpt lat="45.07041" lon="4.49845">
        <ele>776.57</ele>
        <time>2021-03-04T11:42:58.000Z</time>
      </trkpt>
      <trkpt lat="45.07033" lon="4.49842">
        <ele>774.87</ele>
        <time>2021-03-04T11:43:51.590Z</time>
      </trkpt>
      <trkpt lat="45.07017" lon="4.49822">
        <ele>770.35</ele>
        <time>2021-03-04T11:44:13.000Z</time>
      </trkpt>
      <trkpt lat="45.07004" lon="4.49796">
        <ele>764</ele>
        <time>2021-03-04T11:44:33.000Z</time>
      </trkpt>
      <trkpt lat="45.06979" lon="4.49771">
        <ele>754.77</ele>
        <time>2021-03-04T11:45:00.620Z</time>
      </trkpt>
      <trkpt lat="45.06958" lon="4.49756">
        <ele>749.7</ele>
        <time>2021-03-04T11:45:20.350Z</time>
      </trkpt>
      <trkpt lat="45.06935" lon="4.4973">
        <ele>741.25</ele>
        <time>2021-03-04T11:45:50.000Z</time>
      </trkpt>
      <trkpt lat="45.06925" lon="4.4976">
        <ele>737.44</ele>
        <time>2021-03-04T11:46:09.181Z</time>
      </trkpt>
      <trkpt lat="45.06914" lon="4.49793">
        <ele>734.24</ele>
        <time>2021-03-04T11:46:27.592Z</time>
      </trkpt>
      <trkpt lat="45.06903" lon="4.49813">
        <ele>728.87</ele>
        <time>2021-03-04T11:46:56.117Z</time>
      </trkpt>
      <trkpt lat="45.06905" lon="4.49766">
        <ele>727.91</ele>
        <time>2021-03-04T11:47:14.967Z</time>
      </trkpt>
      <trkpt lat="45.06899" lon="4.49744">
        <ele>725.08</ele>
        <time>2021-03-04T11:47:46.000Z</time>
      </trkpt>
      <trkpt lat="45.06895" lon="4.49783">
        <ele>723.23</ele>
        <time>2021-03-04T11:48:07.000Z</time>
      </trkpt>
      <trkpt lat="45.0689" lon="4.49821">
        <ele>720.86</ele>
        <time>2021-03-04T11:48:26.619Z</time>
      </trkpt>
      <trkpt lat="45.06882" lon="4.49863">
        <ele>717.17</ele>
        <time>2021-03-04T11:48:55.000Z</time>
      </trkpt>
      <trkpt lat="45.06873" lon="4.49895">
        <ele>714.03</ele>
        <time>2021-03-04T11:49:15.000Z</time>
      </trkpt>
      <trkpt lat="45.06859" lon="4.49928">
        <ele>711.1</ele>
        <time>2021-03-04T11:49:35.000Z</time>
      </trkpt>
      <trkpt lat="45.06838" lon="4.49979">
        <ele>706.78</ele>
        <time>2021-03-04T11:50:04.233Z</time>
      </trkpt>
      <trkpt lat="45.06834" lon="4.50017">
        <ele>704.9</ele>
        <time>2021-03-04T11:50:23.690Z</time>
      </trkpt>
      <trkpt lat="45.0685" lon="4.50066">
        <ele>702.06</ele>
        <time>2021-03-04T11:50:52.046Z</time>
      </trkpt>
      <trkpt lat="45.0686" lon="4.50093">
        <ele>699.64</ele>
        <time>2021-03-04T11:51:11.098Z</time>
      </trkpt>
      <trkpt lat="45.06867" lon="4.50123">
        <ele>697.44</ele>
        <time>2021-03-04T11:51:30.000Z</time>
      </trkpt>
      <trkpt lat="45.06876" lon="4.50157">
        <ele>692.63</ele>
        <time>2021-03-04T11:51:58.000Z</time>
      </trkpt>
      <trkpt lat="45.06854" lon="4.50144">
        <ele>688.09</ele>
        <time>2021-03-04T11:52:18.999Z</time>
      </trkpt>
      <trkpt lat="45.06822" lon="4.5009">
        <ele>684.36</ele>
        <time>2021-03-04T11:52:47.999Z</time>
      </trkpt>
      <trkpt lat="45.06811" lon="4.50063">
        <ele>682.76</ele>
        <time>2021-03-04T11:53:06.999Z</time>
      </trkpt>
      <trkpt lat="45.06789" lon="4.50038">
        <ele>679.64</ele>
        <time>2021-03-04T11:53:27.550Z</time>
      </trkpt>
      <trkpt lat="45.06773" lon="4.49992">
        <ele>676.19</ele>
        <time>2021-03-04T11:53:56.268Z</time>
      </trkpt>
      <trkpt lat="45.06765" lon="4.49963">
        <ele>673.9</ele>
        <time>2021-03-04T11:54:14.487Z</time>
      </trkpt>
      <trkpt lat="45.06757" lon="4.49919">
        <ele>669.72</ele>
        <time>2021-03-04T11:54:42.295Z</time>
      </trkpt>
      <trkpt lat="45.06751" lon="4.49893">
        <ele>666.11</ele>
        <time>2021-03-04T11:55:00.999Z</time>
      </trkpt>
      <trkpt lat="45.06735" lon="4.49888">
        <ele>662.85</ele>
        <time>2021-03-04T11:55:20.127Z</time>
      </trkpt>
      <trkpt lat="45.06725" lon="4.49941">
        <ele>658.83</ele>
        <time>2021-03-04T11:55:48.294Z</time>
      </trkpt>
      <trkpt lat="45.06721" lon="4.49969">
        <ele>655.86</ele>
        <time>2021-03-04T11:56:07.126Z</time>
      </trkpt>
      <trkpt lat="45.0672" lon="4.49999">
        <ele>652.86</ele>
        <time>2021-03-04T11:56:26.451Z</time>
      </trkpt>
      <trkpt lat="45.06726" lon="4.50045">
        <ele>648.12</ele>
        <time>2021-03-04T11:56:55.999Z</time>
      </trkpt>
      <trkpt lat="45.06733" lon="4.50077">
        <ele>644.43</ele>
        <time>2021-03-04T11:57:15.019Z</time>
      </trkpt>
      <trkpt lat="45.06732" lon="4.50084">
        <ele>639.77</ele>
        <time>2021-03-04T11:57:43.115Z</time>
      </trkpt>
      <trkpt lat="45.06714" lon="4.5006">
        <ele>636.22</ele>
        <time>2021-03-04T11:58:02.333Z</time>
      </trkpt>
      <trkpt lat="45.06703" lon="4.50041">
        <ele>631.98</ele>
        <time>2021-03-04T11:58:22.106Z</time>
      </trkpt>
      <trkpt lat="45.06672" lon="4.50005">
        <ele>627.98</ele>
        <time>2021-03-04T11:58:49.981Z</time>
      </trkpt>
      <trkpt lat="45.06658" lon="4.4998">
        <ele>624.61</ele>
        <time>2021-03-04T11:59:08.119Z</time>
      </trkpt>
      <trkpt lat="45.06643" lon="4.49945">
        <ele>620.74</ele>
        <time>2021-03-04T11:59:36.474Z</time>
      </trkpt>
      <trkpt lat="45.06625" lon="4.49924">
        <ele>619.53</ele>
        <time>2021-03-04T11:59:56.999Z</time>
      </trkpt>
      <trkpt lat="45.06608" lon="4.49903">
        <ele>617.97</ele>
        <time>2021-03-04T12:00:15.284Z</time>
      </trkpt>
      <trkpt lat="45.06588" lon="4.49863">
        <ele>613.7</ele>
        <time>2021-03-04T12:00:42.999Z</time>
      </trkpt>
      <trkpt lat="45.06579" lon="4.49833">
        <ele>611.17</ele>
        <time>2021-03-04T12:01:01.591Z</time>
      </trkpt>
      <trkpt lat="45.06563" lon="4.49806">
        <ele>609.54</ele>
        <time>2021-03-04T12:01:20.126Z</time>
      </trkpt>
      <trkpt lat="45.06543" lon="4.49772">
        <ele>607.33</ele>
        <time>2021-03-04T12:01:49.999Z</time>
      </trkpt>
      <trkpt lat="45.06527" lon="4.49759">
        <ele>605.24</ele>
        <time>2021-03-04T12:02:10.999Z</time>
      </trkpt>
      <trkpt lat="45.06488" lon="4.49735">
        <ele>603.58</ele>
        <time>2021-03-04T12:02:40.000Z</time>
      </trkpt>
      <trkpt lat="45.06465" lon="4.49715">
        <ele>601.25</ele>
        <time>2021-03-04T12:02:58.646Z</time>
      </trkpt>
      <trkpt lat="45.06442" lon="4.49711">
        <ele>599.83</ele>
        <time>2021-03-04T12:03:17.115Z</time>
      </trkpt>
      <trkpt lat="45.06403" lon="4.49698">
        <ele>597.45</ele>
        <time>2021-03-04T12:03:47.215Z</time>
      </trkpt>
      <trkpt lat="45.0638" lon="4.4969">
        <ele>596.04</ele>
        <time>2021-03-04T12:04:06.000Z</time>
      </trkpt>
      <trkpt lat="45.06343" lon="4.49695">
        <ele>593.33</ele>
        <time>2021-03-04T12:04:35.000Z</time>
      </trkpt>
      <trkpt lat="45.06318" lon="4.49703">
        <ele>591.69</ele>
        <time>2021-03-04T12:04:53.618Z</time>
      </trkpt>
      <trkpt lat="45.06296" lon="4.4971">
        <ele>589.94</ele>
        <time>2021-03-04T12:05:13.000Z</time>
      </trkpt>
      <trkpt lat="45.06262" lon="4.49725">
        <ele>587.57</ele>
        <time>2021-03-04T12:05:41.000Z</time>
      </trkpt>
      <trkpt lat="45.06238" lon="4.49736">
        <ele>585.15</ele>
        <time>2021-03-04T12:05:59.745Z</time>
      </trkpt>
      <trkpt lat="45.06209" lon="4.49757">
        <ele>583.72</ele>
        <time>2021-03-04T12:06:28.000Z</time>
      </trkpt>
      <trkpt lat="45.06194" lon="4.49778">
        <ele>582.55</ele>
        <time>2021-03-04T12:06:46.108Z</time>
      </trkpt>
      <trkpt lat="45.06181" lon="4.49803">
        <ele>581.3</ele>
        <time>2021-03-04T12:07:04.272Z</time>
      </trkpt>
      <trkpt lat="45.06164" lon="4.49803">
        <ele>578.99</ele>
        <time>2021-03-04T12:07:33.269Z</time>
      </trkpt>
      <trkpt lat="45.06159" lon="4.49762">
        <ele>576.92</ele>
        <time>2021-03-04T12:07:53.000Z</time>
      </trkpt>
      <trkpt lat="45.06148" lon="4.4973">
        <ele>576.18</ele>
        <time>2021-03-04T12:08:12.000Z</time>
      </trkpt>
      <trkpt lat="45.06123" lon="4.497">
        <ele>574.36</ele>
        <time>2021-03-04T12:08:40.000Z</time>
      </trkpt>
      <trkpt lat="45.06104" lon="4.49676">
        <ele>572.88</ele>
        <time>2021-03-04T12:08:58.427Z</time>
      </trkpt>
      <trkpt lat="45.06067" lon="4.49661">
        <ele>571.22</ele>
        <time>2021-03-04T12:09:26.777Z</time>
      </trkpt>
      <trkpt lat="45.06044" lon="4.4965">
        <ele>569.98</ele>
        <time>2021-03-04T12:09:46.353Z</time>
      </trkpt>
      <trkpt lat="45.06019" lon="4.49638">
        <ele>568.63</ele>
        <time>2021-03-04T12:10:04.551Z</time>
      </trkpt>
      <trkpt lat="45.05987" lon="4.49615">
        <ele>566.72</ele>
        <time>2021-03-04T12:10:32.411Z</time>
      </trkpt>
      <trkpt lat="45.05962" lon="4.49616">
        <ele>565.27</ele>
        <time>2021-03-04T12:10:52.108Z</time>
      </trkpt>
      <trkpt lat="45.05923" lon="4.49624">
        <ele>562.87</ele>
        <time>2021-03-04T12:11:21.000Z</time>
      </trkpt>
      <trkpt lat="45.05897" lon="4.49629">
        <ele>561.44</ele>
        <time>2021-03-04T12:11:40.000Z</time>
      </trkpt>
      <trkpt lat="45.05873" lon="4.49637">
        <ele>560.2</ele>
        <time>2021-03-04T12:11:58.368Z</time>
      </trkpt>
      <trkpt lat="45.05846" lon="4.4967">
        <ele>558.14</ele>
        <time>2021-03-04T12:12:27.766Z</time>
      </trkpt>
      <trkpt lat="45.05833" lon="4.4969">
        <ele>555.73</ele>
        <time>2021-03-04T12:12:46.000Z</time>
      </trkpt>
      <trkpt lat="45.05822" lon="4.49715">
        <ele>553.1</ele>
        <time>2021-03-04T12:13:04.535Z</time>
      </trkpt>
      <trkpt lat="45.05806" lon="4.49761">
        <ele>550.75</ele>
        <time>2021-03-04T12:13:33.311Z</time>
      </trkpt>
      <trkpt lat="45.05802" lon="4.49795">
        <ele>553.84</ele>
        <time>2021-03-04T12:13:53.551Z</time>
      </trkpt>
      <trkpt lat="45.05794" lon="4.4984">
        <ele>556.81</ele>
        <time>2021-03-04T12:14:21.999Z</time>
      </trkpt>
      <trkpt lat="45.05781" lon="4.49873">
        <ele>557.2</ele>
        <time>2021-03-04T12:14:40.614Z</time>
      </trkpt>
      <trkpt lat="45.05778" lon="4.49908">
        <ele>559.58</ele>
        <time>2021-03-04T12:14:59.999Z</time>
      </trkpt>
      <trkpt lat="45.0578" lon="4.49936">
        <ele>562.13</ele>
        <time>2021-03-04T12:15:28.999Z</time>
      </trkpt>
      <trkpt lat="45.05782" lon="4.49976">
        <ele>564.84</ele>
        <time>2021-03-04T12:15:48.008Z</time>
      </trkpt>
      <trkpt lat="45.05786" lon="4.50018">
        <ele>568.99</ele>
        <time>2021-03-04T12:16:15.999Z</time>
      </trkpt>
      <trkpt lat="45.05796" lon="4.50044">
        <ele>572.64</ele>
        <time>2021-03-04T12:16:35.232Z</time>
      </trkpt>
      <trkpt lat="45.05805" lon="4.50069">
        <ele>575.77</ele>
        <time>2021-03-04T12:16:54.172Z</time>
      </trkpt>
      <trkpt lat="45.05824" lon="4.50103">
        <ele>580.42</ele>
        <time>2021-03-04T12:17:21.999Z</time>
      </trkpt>
      <trkpt lat="45.0584" lon="4.5012">
        <ele>583.58</ele>
        <time>2021-03-04T12:17:40.999Z</time>
      </trkpt>
      <trkpt lat="45.05861" lon="4.50151">
        <ele>587.76</ele>
        <time>2021-03-04T12:18:09.999Z</time>
      </trkpt>
      <trkpt lat="45.05864" lon="4.50168">
        <ele>588.96</ele>
        <time>2021-03-04T12:18:29.999Z</time>
      </trkpt>
      <trkpt lat="45.0584" lon="4.50192">
        <ele>591.95</ele>
        <time>2021-03-04T12:18:49.491Z</time>
      </trkpt>
      <trkpt lat="45.05821" lon="4.50225">
        <ele>595.69</ele>
        <time>2021-03-04T12:19:17.999Z</time>
      </trkpt>
      <trkpt lat="45.05814" lon="4.50255">
        <ele>598.14</ele>
        <time>2021-03-04T12:19:37.315Z</time>
      </trkpt>
      <trkpt lat="45.05804" lon="4.50284">
        <ele>600.71</ele>
        <time>2021-03-04T12:19:57.673Z</time>
      </trkpt>
      <trkpt lat="45.05783" lon="4.5032">
        <ele>603.89</ele>
        <time>2021-03-04T12:20:28.527Z</time>
      </trkpt>
      <trkpt lat="45.05803" lon="4.50305">
        <ele>605.22</ele>
        <time>2021-03-04T12:20:47.999Z</time>
      </trkpt>
      <trkpt lat="45.0579" lon="4.50332">
        <ele>609.21</ele>
        <time>2021-03-04T12:21:17.999Z</time>
      </trkpt>
      <trkpt lat="45.05773" lon="4.5036">
        <ele>613.06</ele>
        <time>2021-03-04T12:21:37.999Z</time>
      </trkpt>
      <trkpt lat="45.05765" lon="4.50388">
        <ele>615.93</ele>
        <time>2021-03-04T12:21:57.999Z</time>
      </trkpt>
      <trkpt lat="45.05775" lon="4.50428">
        <ele>621.52</ele>
        <time>2021-03-04T12:22:27.999Z</time>
      </trkpt>
      <trkpt lat="45.0577" lon="4.50451">
        <ele>624.68</ele>
        <time>2021-03-04T12:22:47.264Z</time>
      </trkpt>
      <trkpt lat="45.05739" lon="4.50484">
        <ele>627.31</ele>
        <time>2021-03-04T12:23:17.336Z</time>
      </trkpt>
      <trkpt lat="45.05728" lon="4.50509">
        <ele>630.38</ele>
        <time>2021-03-04T12:23:36.633Z</time>
      </trkpt>
      <trkpt lat="45.05732" lon="4.50506">
        <ele>630.24</ele>
        <time>2021-03-04T12:23:56.000Z</time>
      </trkpt>
      <trkpt lat="45.05738" lon="4.50505">
        <ele>632.74</ele>
        <time>2021-03-04T12:24:35.000Z</time>
      </trkpt>
      <trkpt lat="45.05736" lon="4.5051">
        <ele>632.38</ele>
        <time>2021-03-04T12:25:02.000Z</time>
      </trkpt>
      <trkpt lat="45.05733" lon="4.50508">
        <ele>632.55</ele>
        <time>2021-03-04T12:25:50.000Z</time>
      </trkpt>
      <trkpt lat="45.0573" lon="4.50507">
        <ele>631.83</ele>
        <time>2021-03-04T12:26:57.010Z</time>
      </trkpt>
      <trkpt lat="45.05721" lon="4.5054">
        <ele>635.55</ele>
        <time>2021-03-04T12:27:17.000Z</time>
      </trkpt>
      <trkpt lat="45.05695" lon="4.5057">
        <ele>641.23</ele>
        <time>2021-03-04T12:27:45.833Z</time>
      </trkpt>
      <trkpt lat="45.05671" lon="4.50583">
        <ele>643.83</ele>
        <time>2021-03-04T12:28:05.000Z</time>
      </trkpt>
      <trkpt lat="45.05648" lon="4.50593">
        <ele>645.89</ele>
        <time>2021-03-04T12:28:23.568Z</time>
      </trkpt>
      <trkpt lat="45.05629" lon="4.50608">
        <ele>647.59</ele>
        <time>2021-03-04T12:28:59.000Z</time>
      </trkpt>
      <trkpt lat="45.05628" lon="4.50599">
        <ele>647.08</ele>
        <time>2021-03-04T12:29:20.000Z</time>
      </trkpt>
      <trkpt lat="45.05599" lon="4.50559">
        <ele>642.5</ele>
        <time>2021-03-04T12:29:49.148Z</time>
      </trkpt>
      <trkpt lat="45.05578" lon="4.50545">
        <ele>639.26</ele>
        <time>2021-03-04T12:30:08.394Z</time>
      </trkpt>
      <trkpt lat="45.05552" lon="4.50542">
        <ele>637.25</ele>
        <time>2021-03-04T12:30:27.331Z</time>
      </trkpt>
      <trkpt lat="45.05537" lon="4.50563">
        <ele>634</ele>
        <time>2021-03-04T12:30:55.289Z</time>
      </trkpt>
      <trkpt lat="45.05514" lon="4.50576">
        <ele>628.37</ele>
        <time>2021-03-04T12:31:15.176Z</time>
      </trkpt>
      <trkpt lat="45.0548" lon="4.50576">
        <ele>623.18</ele>
        <time>2021-03-04T12:31:45.000Z</time>
      </trkpt>
      <trkpt lat="45.05458" lon="4.50582">
        <ele>619.25</ele>
        <time>2021-03-04T12:32:04.373Z</time>
      </trkpt>
      <trkpt lat="45.05438" lon="4.50589">
        <ele>614.88</ele>
        <time>2021-03-04T12:32:23.190Z</time>
      </trkpt>
      <trkpt lat="45.05408" lon="4.50605">
        <ele>610.18</ele>
        <time>2021-03-04T12:32:51.000Z</time>
      </trkpt>
      <trkpt lat="45.0538" lon="4.50619">
        <ele>605.69</ele>
        <time>2021-03-04T12:33:10.000Z</time>
      </trkpt>
      <trkpt lat="45.05355" lon="4.50631">
        <ele>602.04</ele>
        <time>2021-03-04T12:33:28.692Z</time>
      </trkpt>
      <trkpt lat="45.05317" lon="4.50649">
        <ele>594.36</ele>
        <time>2021-03-04T12:33:57.999Z</time>
      </trkpt>
      <trkpt lat="45.05292" lon="4.5064">
        <ele>590.06</ele>
        <time>2021-03-04T12:34:18.999Z</time>
      </trkpt>
      <trkpt lat="45.05264" lon="4.50601">
        <ele>584.83</ele>
        <time>2021-03-04T12:34:47.392Z</time>
      </trkpt>
      <trkpt lat="45.05248" lon="4.50575">
        <ele>581.42</ele>
        <time>2021-03-04T12:35:07.999Z</time>
      </trkpt>
      <trkpt lat="45.05235" lon="4.50542">
        <ele>581.21</ele>
        <time>2021-03-04T12:35:28.999Z</time>
      </trkpt>
      <trkpt lat="45.05223" lon="4.50495">
        <ele>580.57</ele>
        <time>2021-03-04T12:35:58.451Z</time>
      </trkpt>
      <trkpt lat="45.05215" lon="4.50451">
        <ele>578.18</ele>
        <time>2021-03-04T12:36:17.128Z</time>
      </trkpt>
      <trkpt lat="45.05225" lon="4.50405">
        <ele>577.75</ele>
        <time>2021-03-04T12:36:45.999Z</time>
      </trkpt>
      <trkpt lat="45.05231" lon="4.50367">
        <ele>576.7</ele>
        <time>2021-03-04T12:37:04.999Z</time>
      </trkpt>
      <trkpt lat="45.05228" lon="4.50323">
        <ele>574.6</ele>
        <time>2021-03-04T12:37:23.999Z</time>
      </trkpt>
      <trkpt lat="45.05229" lon="4.50272">
        <ele>571.59</ele>
        <time>2021-03-04T12:37:53.554Z</time>
      </trkpt>
      <trkpt lat="45.05226" lon="4.5024">
        <ele>570.47</ele>
        <time>2021-03-04T12:38:12.312Z</time>
      </trkpt>
      <trkpt lat="45.05233" lon="4.50203">
        <ele>567.16</ele>
        <time>2021-03-04T12:38:31.087Z</time>
      </trkpt>
      <trkpt lat="45.05244" lon="4.50151">
        <ele>566.17</ele>
        <time>2021-03-04T12:38:59.695Z</time>
      </trkpt>
      <trkpt lat="45.05255" lon="4.50118">
        <ele>565.71</ele>
        <time>2021-03-04T12:39:18.999Z</time>
      </trkpt>
      <trkpt lat="45.05268" lon="4.50072">
        <ele>563.49</ele>
        <time>2021-03-04T12:39:47.999Z</time>
      </trkpt>
      <trkpt lat="45.05273" lon="4.50035">
        <ele>560.22</ele>
        <time>2021-03-04T12:40:08.469Z</time>
      </trkpt>
      <trkpt lat="45.05276" lon="4.49998">
        <ele>555.71</ele>
        <time>2021-03-04T12:40:27.386Z</time>
      </trkpt>
      <trkpt lat="45.05279" lon="4.49959">
        <ele>549.74</ele>
        <time>2021-03-04T12:40:54.999Z</time>
      </trkpt>
      <trkpt lat="45.0528" lon="4.49933">
        <ele>545.38</ele>
        <time>2021-03-04T12:41:15.451Z</time>
      </trkpt>
      <trkpt lat="45.05264" lon="4.49933">
        <ele>540.81</ele>
        <time>2021-03-04T12:41:45.999Z</time>
      </trkpt>
      <trkpt lat="45.05261" lon="4.49936">
        <ele>538.98</ele>
        <time>2021-03-04T12:42:05.999Z</time>
      </trkpt>
      <trkpt lat="45.05254" lon="4.49937">
        <ele>539.39</ele>
        <time>2021-03-04T12:42:25.999Z</time>
      </trkpt>
      <trkpt lat="45.05248" lon="4.4994">
        <ele>540.83</ele>
        <time>2021-03-04T12:42:54.999Z</time>
      </trkpt>
      <trkpt lat="45.05254" lon="4.49944">
        <ele>540.88</ele>
        <time>2021-03-04T12:43:14.999Z</time>
      </trkpt>
      <trkpt lat="45.05258" lon="4.49938">
        <ele>541.78</ele>
        <time>2021-03-04T12:43:59.000Z</time>
      </trkpt>
      <trkpt lat="45.0525" lon="4.49924">
        <ele>544.7</ele>
        <time>2021-03-04T12:44:25.000Z</time>
      </trkpt>
      <trkpt lat="45.05227" lon="4.49911">
        <ele>549.21</ele>
        <time>2021-03-04T12:44:46.000Z</time>
      </trkpt>
      <trkpt lat="45.05199" lon="4.49905">
        <ele>550.23</ele>
        <time>2021-03-04T12:45:16.000Z</time>
      </trkpt>
      <trkpt lat="45.05184" lon="4.49915">
        <ele>552.17</ele>
        <time>2021-03-04T12:45:35.333Z</time>
      </trkpt>
      <trkpt lat="45.05167" lon="4.49931">
        <ele>554.36</ele>
        <time>2021-03-04T12:45:54.330Z</time>
      </trkpt>
      <trkpt lat="45.05139" lon="4.49942">
        <ele>557.93</ele>
        <time>2021-03-04T12:46:24.000Z</time>
      </trkpt>
      <trkpt lat="45.05115" lon="4.49948">
        <ele>560.25</ele>
        <time>2021-03-04T12:46:45.000Z</time>
      </trkpt>
      <trkpt lat="45.05097" lon="4.49969">
        <ele>562.3</ele>
        <time>2021-03-04T12:47:15.000Z</time>
      </trkpt>
      <trkpt lat="45.05086" lon="4.49988">
        <ele>566.3</ele>
        <time>2021-03-04T12:47:34.000Z</time>
      </trkpt>
      <trkpt lat="45.05071" lon="4.49999">
        <ele>566.33</ele>
        <time>2021-03-04T12:47:53.652Z</time>
      </trkpt>
      <trkpt lat="45.05056" lon="4.50008">
        <ele>563.88</ele>
        <time>2021-03-04T12:48:43.000Z</time>
      </trkpt>
      <trkpt lat="45.05038" lon="4.50024">
        <ele>566.54</ele>
        <time>2021-03-04T12:49:04.000Z</time>
      </trkpt>
      <trkpt lat="45.05018" lon="4.5005">
        <ele>567.06</ele>
        <time>2021-03-04T12:49:34.000Z</time>
      </trkpt>
      <trkpt lat="45.04998" lon="4.5006">
        <ele>568.45</ele>
        <time>2021-03-04T12:49:53.000Z</time>
      </trkpt>
      <trkpt lat="45.04983" lon="4.50059">
        <ele>571.19</ele>
        <time>2021-03-04T12:50:12.000Z</time>
      </trkpt>
      <trkpt lat="45.04968" lon="4.50049">
        <ele>568.81</ele>
        <time>2021-03-04T12:50:43.000Z</time>
      </trkpt>
      <trkpt lat="45.04951" lon="4.50039">
        <ele>565.82</ele>
        <time>2021-03-04T12:51:03.000Z</time>
      </trkpt>
      <trkpt lat="45.04938" lon="4.50028">
        <ele>562.87</ele>
        <time>2021-03-04T12:51:22.000Z</time>
      </trkpt>
      <trkpt lat="45.04923" lon="4.50008">
        <ele>558.55</ele>
        <time>2021-03-04T12:51:50.273Z</time>
      </trkpt>
      <trkpt lat="45.04917" lon="4.50005">
        <ele>556.27</ele>
        <time>2021-03-04T12:52:11.126Z</time>
      </trkpt>
      <trkpt lat="45.04901" lon="4.49996">
        <ele>561.81</ele>
        <time>2021-03-04T12:52:41.000Z</time>
      </trkpt>
      <trkpt lat="45.04881" lon="4.49982">
        <ele>566.21</ele>
        <time>2021-03-04T12:53:01.000Z</time>
      </trkpt>
      <trkpt lat="45.04864" lon="4.49972">
        <ele>570.79</ele>
        <time>2021-03-04T12:53:20.000Z</time>
      </trkpt>
      <trkpt lat="45.04842" lon="4.49941">
        <ele>576.29</ele>
        <time>2021-03-04T12:53:51.000Z</time>
      </trkpt>
      <trkpt lat="45.04825" lon="4.49915">
        <ele>580.02</ele>
        <time>2021-03-04T12:54:11.000Z</time>
      </trkpt>
      <trkpt lat="45.04815" lon="4.49879">
        <ele>581.48</ele>
        <time>2021-03-04T12:54:39.270Z</time>
      </trkpt>
      <trkpt lat="45.04813" lon="4.49853">
        <ele>580.31</ele>
        <time>2021-03-04T12:54:58.495Z</time>
      </trkpt>
      <trkpt lat="45.0481" lon="4.49821">
        <ele>582.3</ele>
        <time>2021-03-04T12:55:17.751Z</time>
      </trkpt>
      <trkpt lat="45.04792" lon="4.498">
        <ele>585.09</ele>
        <time>2021-03-04T12:55:46.999Z</time>
      </trkpt>
      <trkpt lat="45.04771" lon="4.49818">
        <ele>586.48</ele>
        <time>2021-03-04T12:56:06.999Z</time>
      </trkpt>
      <trkpt lat="45.04743" lon="4.49825">
        <ele>586.89</ele>
        <time>2021-03-04T12:56:35.999Z</time>
      </trkpt>
      <trkpt lat="45.04719" lon="4.49826">
        <ele>587.38</ele>
        <time>2021-03-04T12:56:55.529Z</time>
      </trkpt>
      <trkpt lat="45.04697" lon="4.49816">
        <ele>584.05</ele>
        <time>2021-03-04T12:57:14.030Z</time>
      </trkpt>
      <trkpt lat="45.0467" lon="4.49792">
        <ele>579.14</ele>
        <time>2021-03-04T12:57:42.207Z</time>
      </trkpt>
      <trkpt lat="45.04651" lon="4.49776">
        <ele>575.85</ele>
        <time>2021-03-04T12:58:01.474Z</time>
      </trkpt>
      <trkpt lat="45.04636" lon="4.49754">
        <ele>571.99</ele>
        <time>2021-03-04T12:58:20.999Z</time>
      </trkpt>
      <trkpt lat="45.04615" lon="4.49717">
        <ele>565.96</ele>
        <time>2021-03-04T12:58:48.706Z</time>
      </trkpt>
      <trkpt lat="45.04609" lon="4.49693">
        <ele>564.39</ele>
        <time>2021-03-04T12:59:09.999Z</time>
      </trkpt>
      <trkpt lat="45.04584" lon="4.497">
        <ele>567.09</ele>
        <time>2021-03-04T12:59:38.771Z</time>
      </trkpt>
      <trkpt lat="45.04566" lon="4.49718">
        <ele>566.85</ele>
        <time>2021-03-04T12:59:57.554Z</time>
      </trkpt>
      <trkpt lat="45.04551" lon="4.49736">
        <ele>564.16</ele>
        <time>2021-03-04T13:00:17.330Z</time>
      </trkpt>
      <trkpt lat="45.04539" lon="4.49775">
        <ele>564.86</ele>
        <time>2021-03-04T13:00:48.394Z</time>
      </trkpt>
      <trkpt lat="45.04539" lon="4.49781">
        <ele>564.98</ele>
        <time>2021-03-04T13:02:10.999Z</time>
      </trkpt>
      <trkpt lat="45.04532" lon="4.49799">
        <ele>564.87</ele>
        <time>2021-03-04T13:02:52.999Z</time>
      </trkpt>
      <trkpt lat="45.04525" lon="4.4981">
        <ele>564.28</ele>
        <time>2021-03-04T13:03:12.999Z</time>
      </trkpt>
      <trkpt lat="45.04513" lon="4.49838">
        <ele>561.27</ele>
        <time>2021-03-04T13:03:33.130Z</time>
      </trkpt>
      <trkpt lat="45.04503" lon="4.49887">
        <ele>559.68</ele>
        <time>2021-03-04T13:04:01.118Z</time>
      </trkpt>
      <trkpt lat="45.04511" lon="4.49914">
        <ele>558.8</ele>
        <time>2021-03-04T13:04:20.266Z</time>
      </trkpt>
      <trkpt lat="45.04507" lon="4.49964">
        <ele>557.76</ele>
        <time>2021-03-04T13:04:48.246Z</time>
      </trkpt>
      <trkpt lat="45.04506" lon="4.49988">
        <ele>556.41</ele>
        <time>2021-03-04T13:05:08.000Z</time>
      </trkpt>
      <trkpt lat="45.04518" lon="4.50018">
        <ele>559.42</ele>
        <time>2021-03-04T13:05:28.452Z</time>
      </trkpt>
      <trkpt lat="45.04524" lon="4.5006">
        <ele>560.72</ele>
        <time>2021-03-04T13:05:56.572Z</time>
      </trkpt>
      <trkpt lat="45.04519" lon="4.50085">
        <ele>560.29</ele>
        <time>2021-03-04T13:06:15.000Z</time>
      </trkpt>
      <trkpt lat="45.0452" lon="4.50119">
        <ele>561.88</ele>
        <time>2021-03-04T13:06:35.000Z</time>
      </trkpt>
      <trkpt lat="45.04519" lon="4.5017">
        <ele>564.43</ele>
        <time>2021-03-04T13:07:02.791Z</time>
      </trkpt>
      <trkpt lat="45.04513" lon="4.502">
        <ele>563.41</ele>
        <time>2021-03-04T13:07:22.000Z</time>
      </trkpt>
      <trkpt lat="45.04505" lon="4.5025">
        <ele>565.38</ele>
        <time>2021-03-04T13:07:50.551Z</time>
      </trkpt>
      <trkpt lat="45.04502" lon="4.50281">
        <ele>566.83</ele>
        <time>2021-03-04T13:08:08.646Z</time>
      </trkpt>
      <trkpt lat="45.04505" lon="4.50312">
        <ele>566.97</ele>
        <time>2021-03-04T13:08:28.000Z</time>
      </trkpt>
      <trkpt lat="45.04506" lon="4.50362">
        <ele>569.91</ele>
        <time>2021-03-04T13:08:56.253Z</time>
      </trkpt>
      <trkpt lat="45.04491" lon="4.50392">
        <ele>569.42</ele>
        <time>2021-03-04T13:09:14.950Z</time>
      </trkpt>
      <trkpt lat="45.04463" lon="4.50419">
        <ele>565.77</ele>
        <time>2021-03-04T13:09:43.000Z</time>
      </trkpt>
      <trkpt lat="45.04438" lon="4.50425">
        <ele>564.79</ele>
        <time>2021-03-04T13:10:01.491Z</time>
      </trkpt>
      <trkpt lat="45.04418" lon="4.50421">
        <ele>562.98</ele>
        <time>2021-03-04T13:10:20.000Z</time>
      </trkpt>
      <trkpt lat="45.04388" lon="4.50402">
        <ele>560.07</ele>
        <time>2021-03-04T13:10:49.000Z</time>
      </trkpt>
      <trkpt lat="45.04358" lon="4.50405">
        <ele>558.86</ele>
        <time>2021-03-04T13:11:08.112Z</time>
      </trkpt>
      <trkpt lat="45.04342" lon="4.50432">
        <ele>557.88</ele>
        <time>2021-03-04T13:11:27.374Z</time>
      </trkpt>
      <trkpt lat="45.04317" lon="4.50425">
        <ele>558.75</ele>
        <time>2021-03-04T13:11:56.000Z</time>
      </trkpt>
      <trkpt lat="45.04298" lon="4.50437">
        <ele>559.06</ele>
        <time>2021-03-04T13:12:15.100Z</time>
      </trkpt>
      <trkpt lat="45.04263" lon="4.50451">
        <ele>557.56</ele>
        <time>2021-03-04T13:12:44.000Z</time>
      </trkpt>
      <trkpt lat="45.04242" lon="4.50466">
        <ele>555.9</ele>
        <time>2021-03-04T13:13:03.000Z</time>
      </trkpt>
      <trkpt lat="45.04231" lon="4.5045">
        <ele>551.9</ele>
        <time>2021-03-04T13:13:23.000Z</time>
      </trkpt>
      <trkpt lat="45.04224" lon="4.50429">
        <ele>547.72</ele>
        <time>2021-03-04T13:13:50.889Z</time>
      </trkpt>
      <trkpt lat="45.04208" lon="4.50444">
        <ele>548.75</ele>
        <time>2021-03-04T13:14:12.000Z</time>
      </trkpt>
      <trkpt lat="45.04169" lon="4.50444">
        <ele>550.72</ele>
        <time>2021-03-04T13:14:40.035Z</time>
      </trkpt>
      <trkpt lat="45.04148" lon="4.50437">
        <ele>552.32</ele>
        <time>2021-03-04T13:14:59.000Z</time>
      </trkpt>
      <trkpt lat="45.04125" lon="4.50431">
        <ele>554.91</ele>
        <time>2021-03-04T13:15:17.330Z</time>
      </trkpt>
      <trkpt lat="45.04093" lon="4.50435">
        <ele>557.77</ele>
        <time>2021-03-04T13:15:45.999Z</time>
      </trkpt>
      <trkpt lat="45.0407" lon="4.50436">
        <ele>558.46</ele>
        <time>2021-03-04T13:16:04.434Z</time>
      </trkpt>
      <trkpt lat="45.0404" lon="4.50421">
        <ele>560.67</ele>
        <time>2021-03-04T13:16:34.612Z</time>
      </trkpt>
      <trkpt lat="45.04017" lon="4.50406">
        <ele>561.67</ele>
        <time>2021-03-04T13:16:53.571Z</time>
      </trkpt>
      <trkpt lat="45.03995" lon="4.50388">
        <ele>562.68</ele>
        <time>2021-03-04T13:17:12.466Z</time>
      </trkpt>
      <trkpt lat="45.03963" lon="4.50375">
        <ele>564.99</ele>
        <time>2021-03-04T13:17:40.925Z</time>
      </trkpt>
      <trkpt lat="45.03956" lon="4.50346">
        <ele>566.67</ele>
        <time>2021-03-04T13:17:59.119Z</time>
      </trkpt>
      <trkpt lat="45.03933" lon="4.50338">
        <ele>567.87</ele>
        <time>2021-03-04T13:18:17.872Z</time>
      </trkpt>
      <trkpt lat="45.03897" lon="4.50349">
        <ele>571.14</ele>
        <time>2021-03-04T13:18:45.904Z</time>
      </trkpt>
      <trkpt lat="45.03875" lon="4.50368">
        <ele>572.59</ele>
        <time>2021-03-04T13:19:04.717Z</time>
      </trkpt>
      <trkpt lat="45.03844" lon="4.50385">
        <ele>574.42</ele>
        <time>2021-03-04T13:19:34.126Z</time>
      </trkpt>
      <trkpt lat="45.03822" lon="4.50403">
        <ele>575.76</ele>
        <time>2021-03-04T13:19:52.999Z</time>
      </trkpt>
      <trkpt lat="45.03799" lon="4.50399">
        <ele>576.35</ele>
        <time>2021-03-04T13:20:11.368Z</time>
      </trkpt>
      <trkpt lat="45.03819" lon="4.50346">
        <ele>577.39</ele>
        <time>2021-03-04T13:20:39.045Z</time>
      </trkpt>
      <trkpt lat="45.0384" lon="4.50314">
        <ele>578.75</ele>
        <time>2021-03-04T13:20:58.999Z</time>
      </trkpt>
      <trkpt lat="45.03862" lon="4.5027">
        <ele>581.27</ele>
        <time>2021-03-04T13:21:27.999Z</time>
      </trkpt>
      <trkpt lat="45.03864" lon="4.50237">
        <ele>582.8</ele>
        <time>2021-03-04T13:21:46.772Z</time>
      </trkpt>
      <trkpt lat="45.03865" lon="4.50209">
        <ele>584.33</ele>
        <time>2021-03-04T13:22:06.388Z</time>
      </trkpt>
      <trkpt lat="45.03837" lon="4.50169">
        <ele>585.71</ele>
        <time>2021-03-04T13:22:35.334Z</time>
      </trkpt>
      <trkpt lat="45.03825" lon="4.50143">
        <ele>587.19</ele>
        <time>2021-03-04T13:22:54.133Z</time>
      </trkpt>
      <trkpt lat="45.03807" lon="4.50123">
        <ele>588.82</ele>
        <time>2021-03-04T13:23:12.999Z</time>
      </trkpt>
      <trkpt lat="45.03785" lon="4.5008">
        <ele>590.27</ele>
        <time>2021-03-04T13:23:41.252Z</time>
      </trkpt>
      <trkpt lat="45.03773" lon="4.50054">
        <ele>591.68</ele>
        <time>2021-03-04T13:23:59.331Z</time>
      </trkpt>
      <trkpt lat="45.03742" lon="4.50033">
        <ele>592.08</ele>
        <time>2021-03-04T13:24:29.999Z</time>
      </trkpt>
      <trkpt lat="45.03718" lon="4.50013">
        <ele>591.89</ele>
        <time>2021-03-04T13:24:49.102Z</time>
      </trkpt>
      <trkpt lat="45.03696" lon="4.5001">
        <ele>592.46</ele>
        <time>2021-03-04T13:25:07.535Z</time>
      </trkpt>
      <trkpt lat="45.03663" lon="4.5003">
        <ele>592.79</ele>
        <time>2021-03-04T13:25:35.474Z</time>
      </trkpt>
      <trkpt lat="45.03639" lon="4.50024">
        <ele>592.91</ele>
        <time>2021-03-04T13:25:54.314Z</time>
      </trkpt>
      <trkpt lat="45.03617" lon="4.49992">
        <ele>592.85</ele>
        <time>2021-03-04T13:26:23.328Z</time>
      </trkpt>
      <trkpt lat="45.03596" lon="4.49981">
        <ele>592.91</ele>
        <time>2021-03-04T13:26:42.250Z</time>
      </trkpt>
      <trkpt lat="45.03574" lon="4.49985">
        <ele>592.28</ele>
        <time>2021-03-04T13:27:02.000Z</time>
      </trkpt>
      <trkpt lat="45.03554" lon="4.49944">
        <ele>592.67</ele>
        <time>2021-03-04T13:27:31.129Z</time>
      </trkpt>
      <trkpt lat="45.0355" lon="4.49916">
        <ele>593.81</ele>
        <time>2021-03-04T13:27:49.547Z</time>
      </trkpt>
      <trkpt lat="45.0353" lon="4.49879">
        <ele>596.48</ele>
        <time>2021-03-04T13:28:17.416Z</time>
      </trkpt>
      <trkpt lat="45.03512" lon="4.49861">
        <ele>598.7</ele>
        <time>2021-03-04T13:28:35.630Z</time>
      </trkpt>
      <trkpt lat="45.0349" lon="4.49848">
        <ele>599.5</ele>
        <time>2021-03-04T13:28:55.107Z</time>
      </trkpt>
      <trkpt lat="45.03469" lon="4.49813">
        <ele>603.68</ele>
        <time>2021-03-04T13:29:24.456Z</time>
      </trkpt>
      <trkpt lat="45.03454" lon="4.49789">
        <ele>607.2</ele>
        <time>2021-03-04T13:29:42.615Z</time>
      </trkpt>
      <trkpt lat="45.03441" lon="4.49782">
        <ele>608.52</ele>
        <time>2021-03-04T13:30:02.000Z</time>
      </trkpt>
      <trkpt lat="45.03411" lon="4.49758">
        <ele>609.3</ele>
        <time>2021-03-04T13:30:30.208Z</time>
      </trkpt>
      <trkpt lat="45.03391" lon="4.49749">
        <ele>609.52</ele>
        <time>2021-03-04T13:30:48.645Z</time>
      </trkpt>
      <trkpt lat="45.03359" lon="4.49758">
        <ele>614.86</ele>
        <time>2021-03-04T13:31:18.672Z</time>
      </trkpt>
      <trkpt lat="45.03339" lon="4.49774">
        <ele>616.76</ele>
        <time>2021-03-04T13:31:37.414Z</time>
      </trkpt>
      <trkpt lat="45.03319" lon="4.49779">
        <ele>617.19</ele>
        <time>2021-03-04T13:31:55.953Z</time>
      </trkpt>
      <trkpt lat="45.03293" lon="4.49775">
        <ele>610.87</ele>
        <time>2021-03-04T13:32:23.208Z</time>
      </trkpt>
      <trkpt lat="45.03271" lon="4.49768">
        <ele>606.18</ele>
        <time>2021-03-04T13:32:43.119Z</time>
      </trkpt>
      <trkpt lat="45.03262" lon="4.49753">
        <ele>600.6</ele>
        <time>2021-03-04T13:33:11.000Z</time>
      </trkpt>
      <trkpt lat="45.03286" lon="4.49743">
        <ele>597.73</ele>
        <time>2021-03-04T13:33:30.389Z</time>
      </trkpt>
      <trkpt lat="45.03297" lon="4.49738">
        <ele>596.7</ele>
        <time>2021-03-04T13:33:50.000Z</time>
      </trkpt>
      <trkpt lat="45.03287" lon="4.49738">
        <ele>594.05</ele>
        <time>2021-03-04T13:34:19.000Z</time>
      </trkpt>
      <trkpt lat="45.03262" lon="4.49737">
        <ele>591.02</ele>
        <time>2021-03-04T13:34:37.252Z</time>
      </trkpt>
      <trkpt lat="45.03245" lon="4.49741">
        <ele>587.69</ele>
        <time>2021-03-04T13:34:56.000Z</time>
      </trkpt>
      <trkpt lat="45.03216" lon="4.49752">
        <ele>583.84</ele>
        <time>2021-03-04T13:35:26.000Z</time>
      </trkpt>
      <trkpt lat="45.03205" lon="4.49755">
        <ele>580.66</ele>
        <time>2021-03-04T13:35:44.213Z</time>
      </trkpt>
      <trkpt lat="45.03162" lon="4.49764">
        <ele>578.8</ele>
        <time>2021-03-04T13:36:12.150Z</time>
      </trkpt>
      <trkpt lat="45.03141" lon="4.49769">
        <ele>580.4</ele>
        <time>2021-03-04T13:36:32.999Z</time>
      </trkpt>
      <trkpt lat="45.03129" lon="4.49781">
        <ele>580.47</ele>
        <time>2021-03-04T13:36:52.999Z</time>
      </trkpt>
      <trkpt lat="45.03102" lon="4.49773">
        <ele>577.76</ele>
        <time>2021-03-04T13:37:20.999Z</time>
      </trkpt>
      <trkpt lat="45.03074" lon="4.49766">
        <ele>575.2</ele>
        <time>2021-03-04T13:37:41.474Z</time>
      </trkpt>
      <trkpt lat="45.03046" lon="4.49744">
        <ele>570.61</ele>
        <time>2021-03-04T13:38:10.999Z</time>
      </trkpt>
      <trkpt lat="45.03026" lon="4.49732">
        <ele>567.23</ele>
        <time>2021-03-04T13:38:30.999Z</time>
      </trkpt>
      <trkpt lat="45.03" lon="4.49722">
        <ele>565.28</ele>
        <time>2021-03-04T13:38:51.593Z</time>
      </trkpt>
      <trkpt lat="45.0298" lon="4.49689">
        <ele>562</ele>
        <time>2021-03-04T13:39:19.999Z</time>
      </trkpt>
      <trkpt lat="45.02959" lon="4.49673">
        <ele>559.05</ele>
        <time>2021-03-04T13:39:39.589Z</time>
      </trkpt>
      <trkpt lat="45.02939" lon="4.49633">
        <ele>556.53</ele>
        <time>2021-03-04T13:40:07.999Z</time>
      </trkpt>
      <trkpt lat="45.02925" lon="4.49602">
        <ele>553.07</ele>
        <time>2021-03-04T13:40:27.999Z</time>
      </trkpt>
      <trkpt lat="45.02911" lon="4.49594">
        <ele>551.24</ele>
        <time>2021-03-04T13:40:48.999Z</time>
      </trkpt>
      <trkpt lat="45.0288" lon="4.49609">
        <ele>545.44</ele>
        <time>2021-03-04T13:41:16.999Z</time>
      </trkpt>
      <trkpt lat="45.02877" lon="4.49614">
        <ele>544.8</ele>
        <time>2021-03-04T13:41:42.999Z</time>
      </trkpt>
      <trkpt lat="45.02882" lon="4.49605">
        <ele>545.55</ele>
        <time>2021-03-04T13:42:01.999Z</time>
      </trkpt>
      <trkpt lat="45.02882" lon="4.49609">
        <ele>545.22</ele>
        <time>2021-03-04T13:44:33.999Z</time>
      </trkpt>
      <trkpt lat="45.02867" lon="4.49633">
        <ele>542.17</ele>
        <time>2021-03-04T13:44:53.431Z</time>
      </trkpt>
      <trkpt lat="45.0284" lon="4.49662">
        <ele>536.45</ele>
        <time>2021-03-04T13:45:21.999Z</time>
      </trkpt>
      <trkpt lat="45.02828" lon="4.49664">
        <ele>531.36</ele>
        <time>2021-03-04T13:45:41.393Z</time>
      </trkpt>
      <trkpt lat="45.02823" lon="4.49642">
        <ele>528.46</ele>
        <time>2021-03-04T13:46:00.728Z</time>
      </trkpt>
      <trkpt lat="45.02796" lon="4.49688">
        <ele>524.14</ele>
        <time>2021-03-04T13:46:29.227Z</time>
      </trkpt>
      <trkpt lat="45.02789" lon="4.49679">
        <ele>520.37</ele>
        <time>2021-03-04T13:46:50.000Z</time>
      </trkpt>
      <trkpt lat="45.02804" lon="4.49629">
        <ele>513.37</ele>
        <time>2021-03-04T13:47:18.061Z</time>
      </trkpt>
      <trkpt lat="45.02809" lon="4.49598">
        <ele>509.27</ele>
        <time>2021-03-04T13:47:37.000Z</time>
      </trkpt>
      <trkpt lat="45.02801" lon="4.49571">
        <ele>505.83</ele>
        <time>2021-03-04T13:47:55.549Z</time>
      </trkpt>
      <trkpt lat="45.02785" lon="4.49538">
        <ele>502.49</ele>
        <time>2021-03-04T13:48:24.612Z</time>
      </trkpt>
      <trkpt lat="45.02777" lon="4.49507">
        <ele>500.94</ele>
        <time>2021-03-04T13:48:43.034Z</time>
      </trkpt>
      <trkpt lat="45.02763" lon="4.49483">
        <ele>500.37</ele>
        <time>2021-03-04T13:49:02.000Z</time>
      </trkpt>
      <trkpt lat="45.02746" lon="4.4944">
        <ele>500.85</ele>
        <time>2021-03-04T13:49:30.148Z</time>
      </trkpt>
      <trkpt lat="45.02727" lon="4.49429">
        <ele>498.94</ele>
        <time>2021-03-04T13:49:50.000Z</time>
      </trkpt>
      <trkpt lat="45.02714" lon="4.4947">
        <ele>497.69</ele>
        <time>2021-03-04T13:50:20.000Z</time>
      </trkpt>
      <trkpt lat="45.02718" lon="4.49468">
        <ele>496.96</ele>
        <time>2021-03-04T13:50:43.000Z</time>
      </trkpt>
      <trkpt lat="45.02718" lon="4.49469">
        <ele>495.26</ele>
        <time>2021-03-04T13:51:25.000Z</time>
      </trkpt>
      <trkpt lat="45.02712" lon="4.49472">
        <ele>493.48</ele>
        <time>2021-03-04T13:54:17.000Z</time>
      </trkpt>
      <trkpt lat="45.02713" lon="4.49467">
        <ele>493.91</ele>
        <time>2021-03-04T13:55:21.000Z</time>
      </trkpt>
    </trkseg>
  </trk>
</gpx>